<?xml version="1.0" encoding="UTF-8" standalone="no" ?>
<gpx xmlns="http://www.topografix.com/GPX/1/1" xmlns:xsi="http://www.w3.org/2001/XMLSchema-instance" xsi:schemaLocation="http://www.topografix.com/GPX/1/1 http://www.topografix.com/GPX/1/1/gpx.xsd" version="1.1" creator="VisuGPX - https://www.visugpx.com">
  <metadata>
    <name>Pessade saulzet le froid</name>
    <desc><![CDATA[Une boucle de décrassage qui permet de découvrir la chaine des puys dans son intégralité]]></desc>
  </metadata>
  <trk>
    <name><![CDATA[04-OCT-14 10:41:29]]></name>
    <trkseg>
      <trkpt lat="45.66713" lon="2.96485">
        <ele>873.5</ele>
        <time>2014-10-04T07:04:34Z</time>
      </trkpt>
      <trkpt lat="45.66708" lon="2.96477">
        <ele>871.09</ele>
        <time>2014-10-04T07:04:39Z</time>
      </trkpt>
      <trkpt lat="45.66708" lon="2.96477">
        <ele>875.42</ele>
        <time>2014-10-04T07:04:40Z</time>
      </trkpt>
      <trkpt lat="45.66709" lon="2.96477">
        <ele>873.5</ele>
        <time>2014-10-04T07:04:41Z</time>
      </trkpt>
      <trkpt lat="45.6671" lon="2.96477">
        <ele>872.05</ele>
        <time>2014-10-04T07:04:42Z</time>
      </trkpt>
      <trkpt lat="45.6671" lon="2.96477">
        <ele>873.5</ele>
        <time>2014-10-04T07:04:43Z</time>
      </trkpt>
      <trkpt lat="45.66712" lon="2.96478">
        <ele>874.94</ele>
        <time>2014-10-04T07:04:44Z</time>
      </trkpt>
      <trkpt lat="45.66713" lon="2.96479">
        <ele>873.98</ele>
        <time>2014-10-04T07:04:45Z</time>
      </trkpt>
      <trkpt lat="45.66715" lon="2.96486">
        <ele>873.01</ele>
        <time>2014-10-04T07:05:03Z</time>
      </trkpt>
      <trkpt lat="45.66704" lon="2.96485">
        <ele>876.86</ele>
        <time>2014-10-04T07:05:10Z</time>
      </trkpt>
      <trkpt lat="45.66704" lon="2.96485">
        <ele>880.22</ele>
        <time>2014-10-04T07:05:13Z</time>
      </trkpt>
      <trkpt lat="45.66704" lon="2.96485">
        <ele>883.11</ele>
        <time>2014-10-04T07:05:16Z</time>
      </trkpt>
      <trkpt lat="45.66706" lon="2.96485">
        <ele>886.47</ele>
        <time>2014-10-04T07:05:20Z</time>
      </trkpt>
      <trkpt lat="45.66709" lon="2.96487">
        <ele>889.84</ele>
        <time>2014-10-04T07:05:24Z</time>
      </trkpt>
      <trkpt lat="45.66711" lon="2.96489">
        <ele>892.72</ele>
        <time>2014-10-04T07:05:28Z</time>
      </trkpt>
      <trkpt lat="45.66713" lon="2.96489">
        <ele>896.57</ele>
        <time>2014-10-04T07:05:33Z</time>
      </trkpt>
      <trkpt lat="45.66714" lon="2.9649">
        <ele>899.45</ele>
        <time>2014-10-04T07:05:37Z</time>
      </trkpt>
      <trkpt lat="45.66715" lon="2.96489">
        <ele>902.82</ele>
        <time>2014-10-04T07:05:42Z</time>
      </trkpt>
      <trkpt lat="45.66714" lon="2.9649">
        <ele>906.66</ele>
        <time>2014-10-04T07:05:48Z</time>
      </trkpt>
      <trkpt lat="45.66714" lon="2.96489">
        <ele>909.54</ele>
        <time>2014-10-04T07:05:52Z</time>
      </trkpt>
      <trkpt lat="45.66725" lon="2.96483">
        <ele>912.91</ele>
        <time>2014-10-04T07:05:59Z</time>
      </trkpt>
      <trkpt lat="45.66748" lon="2.96489">
        <ele>916.75</ele>
        <time>2014-10-04T07:06:06Z</time>
      </trkpt>
      <trkpt lat="45.66761" lon="2.96487">
        <ele>920.12</ele>
        <time>2014-10-04T07:06:11Z</time>
      </trkpt>
      <trkpt lat="45.66771" lon="2.96486">
        <ele>923.48</ele>
        <time>2014-10-04T07:06:15Z</time>
      </trkpt>
      <trkpt lat="45.66779" lon="2.96476">
        <ele>925.89</ele>
        <time>2014-10-04T07:06:20Z</time>
      </trkpt>
      <trkpt lat="45.66788" lon="2.96459">
        <ele>928.77</ele>
        <time>2014-10-04T07:06:27Z</time>
      </trkpt>
      <trkpt lat="45.66789" lon="2.96456">
        <ele>929.25</ele>
        <time>2014-10-04T07:06:28Z</time>
      </trkpt>
      <trkpt lat="45.66792" lon="2.96432">
        <ele>932.62</ele>
        <time>2014-10-04T07:06:36Z</time>
      </trkpt>
      <trkpt lat="45.66796" lon="2.96394">
        <ele>934.06</ele>
        <time>2014-10-04T07:06:49Z</time>
      </trkpt>
      <trkpt lat="45.66805" lon="2.96366">
        <ele>935.5</ele>
        <time>2014-10-04T07:06:59Z</time>
      </trkpt>
      <trkpt lat="45.66818" lon="2.96341">
        <ele>936.46</ele>
        <time>2014-10-04T07:07:09Z</time>
      </trkpt>
      <trkpt lat="45.66835" lon="2.96306">
        <ele>938.86</ele>
        <time>2014-10-04T07:07:23Z</time>
      </trkpt>
      <trkpt lat="45.66854" lon="2.96286">
        <ele>940.31</ele>
        <time>2014-10-04T07:07:34Z</time>
      </trkpt>
      <trkpt lat="45.6686" lon="2.96278">
        <ele>940.79</ele>
        <time>2014-10-04T07:07:38Z</time>
      </trkpt>
      <trkpt lat="45.66861" lon="2.96272">
        <ele>941.27</ele>
        <time>2014-10-04T07:07:40Z</time>
      </trkpt>
      <trkpt lat="45.66871" lon="2.96224">
        <ele>943.67</ele>
        <time>2014-10-04T07:07:56Z</time>
      </trkpt>
      <trkpt lat="45.66882" lon="2.96198">
        <ele>944.63</ele>
        <time>2014-10-04T07:08:06Z</time>
      </trkpt>
      <trkpt lat="45.66885" lon="2.96187">
        <ele>945.59</ele>
        <time>2014-10-04T07:08:10Z</time>
      </trkpt>
      <trkpt lat="45.66904" lon="2.96147">
        <ele>947.04</ele>
        <time>2014-10-04T07:08:25Z</time>
      </trkpt>
      <trkpt lat="45.66923" lon="2.96113">
        <ele>948</ele>
        <time>2014-10-04T07:08:39Z</time>
      </trkpt>
      <trkpt lat="45.66941" lon="2.96087">
        <ele>949.92</ele>
        <time>2014-10-04T07:08:52Z</time>
      </trkpt>
      <trkpt lat="45.66962" lon="2.96051">
        <ele>952.32</ele>
        <time>2014-10-04T07:09:09Z</time>
      </trkpt>
      <trkpt lat="45.66976" lon="2.96023">
        <ele>953.28</ele>
        <time>2014-10-04T07:09:21Z</time>
      </trkpt>
      <trkpt lat="45.66998" lon="2.95975">
        <ele>954.25</ele>
        <time>2014-10-04T07:09:36Z</time>
      </trkpt>
      <trkpt lat="45.67023" lon="2.95929">
        <ele>955.21</ele>
        <time>2014-10-04T07:09:50Z</time>
      </trkpt>
      <trkpt lat="45.67057" lon="2.95886">
        <ele>956.65</ele>
        <time>2014-10-04T07:10:05Z</time>
      </trkpt>
      <trkpt lat="45.67081" lon="2.95838">
        <ele>958.09</ele>
        <time>2014-10-04T07:10:20Z</time>
      </trkpt>
      <trkpt lat="45.67097" lon="2.95792">
        <ele>959.05</ele>
        <time>2014-10-04T07:10:33Z</time>
      </trkpt>
      <trkpt lat="45.67109" lon="2.95737">
        <ele>960.49</ele>
        <time>2014-10-04T07:10:48Z</time>
      </trkpt>
      <trkpt lat="45.67127" lon="2.95695">
        <ele>962.42</ele>
        <time>2014-10-04T07:11:01Z</time>
      </trkpt>
      <trkpt lat="45.67153" lon="2.95653">
        <ele>964.82</ele>
        <time>2014-10-04T07:11:18Z</time>
      </trkpt>
      <trkpt lat="45.67176" lon="2.95611">
        <ele>966.74</ele>
        <time>2014-10-04T07:11:35Z</time>
      </trkpt>
      <trkpt lat="45.67199" lon="2.9557">
        <ele>967.7</ele>
        <time>2014-10-04T07:11:50Z</time>
      </trkpt>
      <trkpt lat="45.67231" lon="2.95508">
        <ele>968.18</ele>
        <time>2014-10-04T07:12:07Z</time>
      </trkpt>
      <trkpt lat="45.67262" lon="2.95436">
        <ele>968.67</ele>
        <time>2014-10-04T07:12:24Z</time>
      </trkpt>
      <trkpt lat="45.67302" lon="2.95348">
        <ele>968.18</ele>
        <time>2014-10-04T07:12:41Z</time>
      </trkpt>
      <trkpt lat="45.67308" lon="2.95331">
        <ele>967.7</ele>
        <time>2014-10-04T07:12:44Z</time>
      </trkpt>
      <trkpt lat="45.6731" lon="2.95325">
        <ele>967.7</ele>
        <time>2014-10-04T07:12:45Z</time>
      </trkpt>
      <trkpt lat="45.67312" lon="2.9532">
        <ele>967.7</ele>
        <time>2014-10-04T07:12:46Z</time>
      </trkpt>
      <trkpt lat="45.67315" lon="2.95313">
        <ele>967.7</ele>
        <time>2014-10-04T07:12:47Z</time>
      </trkpt>
      <trkpt lat="45.67317" lon="2.95307">
        <ele>967.7</ele>
        <time>2014-10-04T07:12:48Z</time>
      </trkpt>
      <trkpt lat="45.67342" lon="2.95245">
        <ele>966.74</ele>
        <time>2014-10-04T07:12:58Z</time>
      </trkpt>
      <trkpt lat="45.67344" lon="2.95239">
        <ele>966.74</ele>
        <time>2014-10-04T07:12:59Z</time>
      </trkpt>
      <trkpt lat="45.67347" lon="2.95233">
        <ele>966.74</ele>
        <time>2014-10-04T07:13:00Z</time>
      </trkpt>
      <trkpt lat="45.67387" lon="2.95167">
        <ele>966.74</ele>
        <time>2014-10-04T07:13:13Z</time>
      </trkpt>
      <trkpt lat="45.6739" lon="2.95162">
        <ele>966.74</ele>
        <time>2014-10-04T07:13:14Z</time>
      </trkpt>
      <trkpt lat="45.67405" lon="2.9513">
        <ele>966.26</ele>
        <time>2014-10-04T07:13:20Z</time>
      </trkpt>
      <trkpt lat="45.67408" lon="2.95125">
        <ele>966.74</ele>
        <time>2014-10-04T07:13:21Z</time>
      </trkpt>
      <trkpt lat="45.6741" lon="2.95119">
        <ele>966.74</ele>
        <time>2014-10-04T07:13:22Z</time>
      </trkpt>
      <trkpt lat="45.67412" lon="2.95113">
        <ele>966.74</ele>
        <time>2014-10-04T07:13:23Z</time>
      </trkpt>
      <trkpt lat="45.67414" lon="2.95108">
        <ele>966.74</ele>
        <time>2014-10-04T07:13:24Z</time>
      </trkpt>
      <trkpt lat="45.67416" lon="2.95102">
        <ele>966.74</ele>
        <time>2014-10-04T07:13:25Z</time>
      </trkpt>
      <trkpt lat="45.67419" lon="2.95097">
        <ele>966.74</ele>
        <time>2014-10-04T07:13:26Z</time>
      </trkpt>
      <trkpt lat="45.67424" lon="2.95086">
        <ele>966.74</ele>
        <time>2014-10-04T07:13:28Z</time>
      </trkpt>
      <trkpt lat="45.67452" lon="2.95025">
        <ele>966.74</ele>
        <time>2014-10-04T07:13:40Z</time>
      </trkpt>
      <trkpt lat="45.6746" lon="2.94986">
        <ele>966.74</ele>
        <time>2014-10-04T07:13:47Z</time>
      </trkpt>
      <trkpt lat="45.67462" lon="2.9498">
        <ele>966.74</ele>
        <time>2014-10-04T07:13:48Z</time>
      </trkpt>
      <trkpt lat="45.67463" lon="2.94973">
        <ele>966.74</ele>
        <time>2014-10-04T07:13:49Z</time>
      </trkpt>
      <trkpt lat="45.67492" lon="2.94878">
        <ele>967.7</ele>
        <time>2014-10-04T07:14:06Z</time>
      </trkpt>
      <trkpt lat="45.67528" lon="2.94796">
        <ele>968.67</ele>
        <time>2014-10-04T07:14:24Z</time>
      </trkpt>
      <trkpt lat="45.6756" lon="2.9473">
        <ele>970.11</ele>
        <time>2014-10-04T07:14:40Z</time>
      </trkpt>
      <trkpt lat="45.67594" lon="2.94663">
        <ele>972.03</ele>
        <time>2014-10-04T07:14:57Z</time>
      </trkpt>
      <trkpt lat="45.67625" lon="2.94607">
        <ele>973.95</ele>
        <time>2014-10-04T07:15:13Z</time>
      </trkpt>
      <trkpt lat="45.67655" lon="2.94549">
        <ele>975.39</ele>
        <time>2014-10-04T07:15:28Z</time>
      </trkpt>
      <trkpt lat="45.67677" lon="2.94501">
        <ele>974.91</ele>
        <time>2014-10-04T07:15:38Z</time>
      </trkpt>
      <trkpt lat="45.67678" lon="2.94496">
        <ele>974.91</ele>
        <time>2014-10-04T07:15:39Z</time>
      </trkpt>
      <trkpt lat="45.67714" lon="2.94371">
        <ele>972.51</ele>
        <time>2014-10-04T07:15:58Z</time>
      </trkpt>
      <trkpt lat="45.67721" lon="2.94352">
        <ele>972.51</ele>
        <time>2014-10-04T07:16:01Z</time>
      </trkpt>
      <trkpt lat="45.67741" lon="2.94299">
        <ele>974.91</ele>
        <time>2014-10-04T07:16:13Z</time>
      </trkpt>
      <trkpt lat="45.67763" lon="2.94238">
        <ele>976.36</ele>
        <time>2014-10-04T07:16:28Z</time>
      </trkpt>
      <trkpt lat="45.67778" lon="2.94172">
        <ele>977.8</ele>
        <time>2014-10-04T07:16:43Z</time>
      </trkpt>
      <trkpt lat="45.6779" lon="2.9411">
        <ele>979.24</ele>
        <time>2014-10-04T07:16:57Z</time>
      </trkpt>
      <trkpt lat="45.678" lon="2.94049">
        <ele>980.2</ele>
        <time>2014-10-04T07:17:10Z</time>
      </trkpt>
      <trkpt lat="45.67816" lon="2.93969">
        <ele>982.12</ele>
        <time>2014-10-04T07:17:28Z</time>
      </trkpt>
      <trkpt lat="45.67832" lon="2.93902">
        <ele>984.05</ele>
        <time>2014-10-04T07:17:43Z</time>
      </trkpt>
      <trkpt lat="45.67841" lon="2.93877">
        <ele>984.05</ele>
        <time>2014-10-04T07:17:48Z</time>
      </trkpt>
      <trkpt lat="45.67843" lon="2.93872">
        <ele>984.05</ele>
        <time>2014-10-04T07:17:49Z</time>
      </trkpt>
      <trkpt lat="45.67845" lon="2.93868">
        <ele>984.05</ele>
        <time>2014-10-04T07:17:50Z</time>
      </trkpt>
      <trkpt lat="45.67848" lon="2.93864">
        <ele>984.53</ele>
        <time>2014-10-04T07:17:51Z</time>
      </trkpt>
      <trkpt lat="45.67851" lon="2.9386">
        <ele>984.53</ele>
        <time>2014-10-04T07:17:52Z</time>
      </trkpt>
      <trkpt lat="45.67853" lon="2.93856">
        <ele>984.53</ele>
        <time>2014-10-04T07:17:53Z</time>
      </trkpt>
      <trkpt lat="45.67854" lon="2.93851">
        <ele>984.53</ele>
        <time>2014-10-04T07:17:54Z</time>
      </trkpt>
      <trkpt lat="45.67855" lon="2.93845">
        <ele>985.01</ele>
        <time>2014-10-04T07:17:55Z</time>
      </trkpt>
      <trkpt lat="45.67855" lon="2.9384">
        <ele>985.01</ele>
        <time>2014-10-04T07:17:56Z</time>
      </trkpt>
      <trkpt lat="45.67855" lon="2.93834">
        <ele>984.53</ele>
        <time>2014-10-04T07:17:57Z</time>
      </trkpt>
      <trkpt lat="45.67855" lon="2.93828">
        <ele>984.53</ele>
        <time>2014-10-04T07:17:58Z</time>
      </trkpt>
      <trkpt lat="45.67855" lon="2.93821">
        <ele>984.53</ele>
        <time>2014-10-04T07:17:59Z</time>
      </trkpt>
      <trkpt lat="45.67856" lon="2.93809">
        <ele>985.01</ele>
        <time>2014-10-04T07:18:01Z</time>
      </trkpt>
      <trkpt lat="45.67856" lon="2.93803">
        <ele>985.01</ele>
        <time>2014-10-04T07:18:02Z</time>
      </trkpt>
      <trkpt lat="45.67856" lon="2.93798">
        <ele>985.01</ele>
        <time>2014-10-04T07:18:03Z</time>
      </trkpt>
      <trkpt lat="45.67857" lon="2.93792">
        <ele>985.01</ele>
        <time>2014-10-04T07:18:04Z</time>
      </trkpt>
      <trkpt lat="45.67859" lon="2.93787">
        <ele>985.01</ele>
        <time>2014-10-04T07:18:05Z</time>
      </trkpt>
      <trkpt lat="45.67895" lon="2.93701">
        <ele>985.01</ele>
        <time>2014-10-04T07:18:22Z</time>
      </trkpt>
      <trkpt lat="45.6791" lon="2.93666">
        <ele>985.01</ele>
        <time>2014-10-04T07:18:28Z</time>
      </trkpt>
      <trkpt lat="45.67942" lon="2.9358">
        <ele>983.09</ele>
        <time>2014-10-04T07:18:43Z</time>
      </trkpt>
      <trkpt lat="45.67948" lon="2.93563">
        <ele>982.6</ele>
        <time>2014-10-04T07:18:47Z</time>
      </trkpt>
      <trkpt lat="45.67948" lon="2.93558">
        <ele>983.09</ele>
        <time>2014-10-04T07:18:48Z</time>
      </trkpt>
      <trkpt lat="45.67948" lon="2.93485">
        <ele>984.53</ele>
        <time>2014-10-04T07:19:02Z</time>
      </trkpt>
      <trkpt lat="45.6795" lon="2.9339">
        <ele>983.09</ele>
        <time>2014-10-04T07:19:17Z</time>
      </trkpt>
      <trkpt lat="45.67952" lon="2.93298">
        <ele>979.72</ele>
        <time>2014-10-04T07:19:28Z</time>
      </trkpt>
      <trkpt lat="45.67958" lon="2.93146">
        <ele>977.32</ele>
        <time>2014-10-04T07:19:44Z</time>
      </trkpt>
      <trkpt lat="45.67963" lon="2.93036">
        <ele>977.32</ele>
        <time>2014-10-04T07:19:57Z</time>
      </trkpt>
      <trkpt lat="45.67967" lon="2.92917">
        <ele>976.36</ele>
        <time>2014-10-04T07:20:11Z</time>
      </trkpt>
      <trkpt lat="45.67972" lon="2.92778">
        <ele>972.99</ele>
        <time>2014-10-04T07:20:26Z</time>
      </trkpt>
      <trkpt lat="45.67975" lon="2.92668">
        <ele>973.47</ele>
        <time>2014-10-04T07:20:37Z</time>
      </trkpt>
      <trkpt lat="45.67976" lon="2.9266">
        <ele>974.91</ele>
        <time>2014-10-04T07:20:38Z</time>
      </trkpt>
      <trkpt lat="45.67977" lon="2.92653">
        <ele>974.43</ele>
        <time>2014-10-04T07:20:39Z</time>
      </trkpt>
      <trkpt lat="45.67977" lon="2.92601">
        <ele>975.88</ele>
        <time>2014-10-04T07:20:48Z</time>
      </trkpt>
      <trkpt lat="45.67969" lon="2.92536">
        <ele>972.51</ele>
        <time>2014-10-04T07:20:56Z</time>
      </trkpt>
      <trkpt lat="45.67969" lon="2.92526">
        <ele>972.03</ele>
        <time>2014-10-04T07:20:57Z</time>
      </trkpt>
      <trkpt lat="45.6797" lon="2.92504">
        <ele>971.55</ele>
        <time>2014-10-04T07:20:59Z</time>
      </trkpt>
      <trkpt lat="45.67973" lon="2.92495">
        <ele>971.07</ele>
        <time>2014-10-04T07:21:00Z</time>
      </trkpt>
      <trkpt lat="45.67977" lon="2.92487">
        <ele>971.07</ele>
        <time>2014-10-04T07:21:01Z</time>
      </trkpt>
      <trkpt lat="45.67982" lon="2.9248">
        <ele>971.55</ele>
        <time>2014-10-04T07:21:02Z</time>
      </trkpt>
      <trkpt lat="45.67986" lon="2.92474">
        <ele>971.55</ele>
        <time>2014-10-04T07:21:03Z</time>
      </trkpt>
      <trkpt lat="45.68006" lon="2.92448">
        <ele>975.39</ele>
        <time>2014-10-04T07:21:09Z</time>
      </trkpt>
      <trkpt lat="45.6801" lon="2.92441">
        <ele>976.84</ele>
        <time>2014-10-04T07:21:12Z</time>
      </trkpt>
      <trkpt lat="45.68026" lon="2.92418">
        <ele>980.2</ele>
        <time>2014-10-04T07:21:24Z</time>
      </trkpt>
      <trkpt lat="45.68042" lon="2.92387">
        <ele>982.6</ele>
        <time>2014-10-04T07:21:38Z</time>
      </trkpt>
      <trkpt lat="45.68066" lon="2.92347">
        <ele>983.09</ele>
        <time>2014-10-04T07:21:52Z</time>
      </trkpt>
      <trkpt lat="45.68092" lon="2.92299">
        <ele>984.05</ele>
        <time>2014-10-04T07:22:06Z</time>
      </trkpt>
      <trkpt lat="45.68113" lon="2.92239">
        <ele>985.49</ele>
        <time>2014-10-04T07:22:21Z</time>
      </trkpt>
      <trkpt lat="45.68134" lon="2.92173">
        <ele>986.45</ele>
        <time>2014-10-04T07:22:36Z</time>
      </trkpt>
      <trkpt lat="45.68158" lon="2.92096">
        <ele>987.89</ele>
        <time>2014-10-04T07:22:53Z</time>
      </trkpt>
      <trkpt lat="45.68179" lon="2.92026">
        <ele>987.89</ele>
        <time>2014-10-04T07:23:07Z</time>
      </trkpt>
      <trkpt lat="45.68196" lon="2.91934">
        <ele>987.41</ele>
        <time>2014-10-04T07:23:22Z</time>
      </trkpt>
      <trkpt lat="45.6821" lon="2.91826">
        <ele>985.49</ele>
        <time>2014-10-04T07:23:36Z</time>
      </trkpt>
      <trkpt lat="45.68215" lon="2.91789">
        <ele>985.49</ele>
        <time>2014-10-04T07:23:41Z</time>
      </trkpt>
      <trkpt lat="45.6822" lon="2.91676">
        <ele>985.49</ele>
        <time>2014-10-04T07:23:57Z</time>
      </trkpt>
      <trkpt lat="45.68222" lon="2.9164">
        <ele>985.49</ele>
        <time>2014-10-04T07:24:02Z</time>
      </trkpt>
      <trkpt lat="45.68223" lon="2.91632">
        <ele>985.49</ele>
        <time>2014-10-04T07:24:03Z</time>
      </trkpt>
      <trkpt lat="45.68223" lon="2.91573">
        <ele>985.01</ele>
        <time>2014-10-04T07:24:11Z</time>
      </trkpt>
      <trkpt lat="45.68227" lon="2.91436">
        <ele>983.57</ele>
        <time>2014-10-04T07:24:28Z</time>
      </trkpt>
      <trkpt lat="45.68233" lon="2.91302">
        <ele>982.12</ele>
        <time>2014-10-04T07:24:44Z</time>
      </trkpt>
      <trkpt lat="45.68241" lon="2.91156">
        <ele>979.72</ele>
        <time>2014-10-04T07:25:01Z</time>
      </trkpt>
      <trkpt lat="45.68251" lon="2.91032">
        <ele>979.24</ele>
        <time>2014-10-04T07:25:14Z</time>
      </trkpt>
      <trkpt lat="45.6825" lon="2.91015">
        <ele>978.76</ele>
        <time>2014-10-04T07:25:16Z</time>
      </trkpt>
      <trkpt lat="45.6825" lon="2.91006">
        <ele>979.24</ele>
        <time>2014-10-04T07:25:17Z</time>
      </trkpt>
      <trkpt lat="45.68252" lon="2.90998">
        <ele>979.24</ele>
        <time>2014-10-04T07:25:18Z</time>
      </trkpt>
      <trkpt lat="45.68255" lon="2.9099">
        <ele>978.76</ele>
        <time>2014-10-04T07:25:19Z</time>
      </trkpt>
      <trkpt lat="45.68259" lon="2.90984">
        <ele>978.76</ele>
        <time>2014-10-04T07:25:20Z</time>
      </trkpt>
      <trkpt lat="45.68263" lon="2.90979">
        <ele>978.28</ele>
        <time>2014-10-04T07:25:21Z</time>
      </trkpt>
      <trkpt lat="45.68283" lon="2.90949">
        <ele>977.8</ele>
        <time>2014-10-04T07:25:26Z</time>
      </trkpt>
      <trkpt lat="45.68286" lon="2.90943">
        <ele>977.32</ele>
        <time>2014-10-04T07:25:27Z</time>
      </trkpt>
      <trkpt lat="45.68288" lon="2.90936">
        <ele>976.84</ele>
        <time>2014-10-04T07:25:28Z</time>
      </trkpt>
      <trkpt lat="45.6829" lon="2.90928">
        <ele>976.36</ele>
        <time>2014-10-04T07:25:29Z</time>
      </trkpt>
      <trkpt lat="45.6829" lon="2.9092">
        <ele>976.36</ele>
        <time>2014-10-04T07:25:30Z</time>
      </trkpt>
      <trkpt lat="45.68289" lon="2.90911">
        <ele>976.36</ele>
        <time>2014-10-04T07:25:31Z</time>
      </trkpt>
      <trkpt lat="45.68288" lon="2.90902">
        <ele>975.88</ele>
        <time>2014-10-04T07:25:32Z</time>
      </trkpt>
      <trkpt lat="45.68286" lon="2.90893">
        <ele>975.88</ele>
        <time>2014-10-04T07:25:33Z</time>
      </trkpt>
      <trkpt lat="45.68284" lon="2.90885">
        <ele>975.88</ele>
        <time>2014-10-04T07:25:34Z</time>
      </trkpt>
      <trkpt lat="45.68266" lon="2.90793">
        <ele>977.8</ele>
        <time>2014-10-04T07:25:46Z</time>
      </trkpt>
      <trkpt lat="45.68254" lon="2.90738">
        <ele>980.68</ele>
        <time>2014-10-04T07:25:58Z</time>
      </trkpt>
      <trkpt lat="45.68248" lon="2.90706">
        <ele>983.57</ele>
        <time>2014-10-04T07:26:07Z</time>
      </trkpt>
      <trkpt lat="45.6825" lon="2.90704">
        <ele>983.57</ele>
        <time>2014-10-04T07:26:08Z</time>
      </trkpt>
      <trkpt lat="45.68253" lon="2.90702">
        <ele>984.05</ele>
        <time>2014-10-04T07:26:09Z</time>
      </trkpt>
      <trkpt lat="45.68278" lon="2.90673">
        <ele>986.45</ele>
        <time>2014-10-04T07:26:22Z</time>
      </trkpt>
      <trkpt lat="45.68279" lon="2.90672">
        <ele>986.45</ele>
        <time>2014-10-04T07:26:23Z</time>
      </trkpt>
      <trkpt lat="45.68281" lon="2.90672">
        <ele>986.45</ele>
        <time>2014-10-04T07:26:24Z</time>
      </trkpt>
      <trkpt lat="45.68283" lon="2.90672">
        <ele>986.93</ele>
        <time>2014-10-04T07:26:25Z</time>
      </trkpt>
      <trkpt lat="45.68285" lon="2.90672">
        <ele>986.93</ele>
        <time>2014-10-04T07:26:26Z</time>
      </trkpt>
      <trkpt lat="45.68314" lon="2.90668">
        <ele>987.89</ele>
        <time>2014-10-04T07:26:39Z</time>
      </trkpt>
      <trkpt lat="45.68325" lon="2.9066">
        <ele>987.89</ele>
        <time>2014-10-04T07:26:50Z</time>
      </trkpt>
      <trkpt lat="45.68328" lon="2.9066">
        <ele>987.89</ele>
        <time>2014-10-04T07:27:08Z</time>
      </trkpt>
      <trkpt lat="45.68328" lon="2.9066">
        <ele>983.57</ele>
        <time>2014-10-04T07:27:10Z</time>
      </trkpt>
      <trkpt lat="45.68328" lon="2.9066">
        <ele>986.93</ele>
        <time>2014-10-04T07:27:11Z</time>
      </trkpt>
      <trkpt lat="45.68329" lon="2.90661">
        <ele>987.41</ele>
        <time>2014-10-04T07:27:34Z</time>
      </trkpt>
      <trkpt lat="45.68329" lon="2.9066">
        <ele>992.22</ele>
        <time>2014-10-04T07:27:43Z</time>
      </trkpt>
      <trkpt lat="45.68329" lon="2.9066">
        <ele>987.89</ele>
        <time>2014-10-04T07:27:44Z</time>
      </trkpt>
      <trkpt lat="45.68331" lon="2.9066">
        <ele>988.37</ele>
        <time>2014-10-04T07:27:52Z</time>
      </trkpt>
      <trkpt lat="45.68333" lon="2.90662">
        <ele>988.37</ele>
        <time>2014-10-04T07:27:53Z</time>
      </trkpt>
      <trkpt lat="45.68335" lon="2.90662">
        <ele>988.37</ele>
        <time>2014-10-04T07:27:54Z</time>
      </trkpt>
      <trkpt lat="45.68336" lon="2.90663">
        <ele>988.37</ele>
        <time>2014-10-04T07:27:55Z</time>
      </trkpt>
      <trkpt lat="45.68338" lon="2.90664">
        <ele>988.37</ele>
        <time>2014-10-04T07:27:56Z</time>
      </trkpt>
      <trkpt lat="45.68369" lon="2.90669">
        <ele>987.89</ele>
        <time>2014-10-04T07:28:06Z</time>
      </trkpt>
      <trkpt lat="45.68372" lon="2.90667">
        <ele>987.89</ele>
        <time>2014-10-04T07:28:07Z</time>
      </trkpt>
      <trkpt lat="45.68375" lon="2.90664">
        <ele>987.89</ele>
        <time>2014-10-04T07:28:08Z</time>
      </trkpt>
      <trkpt lat="45.68378" lon="2.9066">
        <ele>987.89</ele>
        <time>2014-10-04T07:28:09Z</time>
      </trkpt>
      <trkpt lat="45.6838" lon="2.90656">
        <ele>987.89</ele>
        <time>2014-10-04T07:28:10Z</time>
      </trkpt>
      <trkpt lat="45.68402" lon="2.90616">
        <ele>989.33</ele>
        <time>2014-10-04T07:28:21Z</time>
      </trkpt>
      <trkpt lat="45.68417" lon="2.90556">
        <ele>990.3</ele>
        <time>2014-10-04T07:28:35Z</time>
      </trkpt>
      <trkpt lat="45.68416" lon="2.90548">
        <ele>990.3</ele>
        <time>2014-10-04T07:28:37Z</time>
      </trkpt>
      <trkpt lat="45.68376" lon="2.90516">
        <ele>991.74</ele>
        <time>2014-10-04T07:28:49Z</time>
      </trkpt>
      <trkpt lat="45.68368" lon="2.90509">
        <ele>992.7</ele>
        <time>2014-10-04T07:28:53Z</time>
      </trkpt>
      <trkpt lat="45.68367" lon="2.90507">
        <ele>992.7</ele>
        <time>2014-10-04T07:28:54Z</time>
      </trkpt>
      <trkpt lat="45.68341" lon="2.90469">
        <ele>994.62</ele>
        <time>2014-10-04T07:29:08Z</time>
      </trkpt>
      <trkpt lat="45.68338" lon="2.90467">
        <ele>994.62</ele>
        <time>2014-10-04T07:29:09Z</time>
      </trkpt>
      <trkpt lat="45.68333" lon="2.90467">
        <ele>995.1</ele>
        <time>2014-10-04T07:29:11Z</time>
      </trkpt>
      <trkpt lat="45.6833" lon="2.90469">
        <ele>995.1</ele>
        <time>2014-10-04T07:29:12Z</time>
      </trkpt>
      <trkpt lat="45.68328" lon="2.9047">
        <ele>994.62</ele>
        <time>2014-10-04T07:29:13Z</time>
      </trkpt>
      <trkpt lat="45.68326" lon="2.9047">
        <ele>995.1</ele>
        <time>2014-10-04T07:29:14Z</time>
      </trkpt>
      <trkpt lat="45.68324" lon="2.9047">
        <ele>995.1</ele>
        <time>2014-10-04T07:29:15Z</time>
      </trkpt>
      <trkpt lat="45.68323" lon="2.9047">
        <ele>995.1</ele>
        <time>2014-10-04T07:29:16Z</time>
      </trkpt>
      <trkpt lat="45.68322" lon="2.9047">
        <ele>995.1</ele>
        <time>2014-10-04T07:29:17Z</time>
      </trkpt>
      <trkpt lat="45.68267" lon="2.90449">
        <ele>995.58</ele>
        <time>2014-10-04T07:29:28Z</time>
      </trkpt>
      <trkpt lat="45.68213" lon="2.90428">
        <ele>995.58</ele>
        <time>2014-10-04T07:29:42Z</time>
      </trkpt>
      <trkpt lat="45.68153" lon="2.90406">
        <ele>997.02</ele>
        <time>2014-10-04T07:29:59Z</time>
      </trkpt>
      <trkpt lat="45.681" lon="2.90372">
        <ele>998.47</ele>
        <time>2014-10-04T07:30:15Z</time>
      </trkpt>
      <trkpt lat="45.68052" lon="2.90323">
        <ele>999.91</ele>
        <time>2014-10-04T07:30:32Z</time>
      </trkpt>
      <trkpt lat="45.68011" lon="2.90274">
        <ele>1002.31</ele>
        <time>2014-10-04T07:30:49Z</time>
      </trkpt>
      <trkpt lat="45.67974" lon="2.90242">
        <ele>1003.27</ele>
        <time>2014-10-04T07:31:03Z</time>
      </trkpt>
      <trkpt lat="45.67933" lon="2.90225">
        <ele>1004.23</ele>
        <time>2014-10-04T07:31:16Z</time>
      </trkpt>
      <trkpt lat="45.67878" lon="2.90223">
        <ele>1005.2</ele>
        <time>2014-10-04T07:31:32Z</time>
      </trkpt>
      <trkpt lat="45.67838" lon="2.90223">
        <ele>1006.16</ele>
        <time>2014-10-04T07:31:44Z</time>
      </trkpt>
      <trkpt lat="45.67795" lon="2.90226">
        <ele>1007.12</ele>
        <time>2014-10-04T07:31:57Z</time>
      </trkpt>
      <trkpt lat="45.67742" lon="2.90229">
        <ele>1008.08</ele>
        <time>2014-10-04T07:32:13Z</time>
      </trkpt>
      <trkpt lat="45.67692" lon="2.90229">
        <ele>1009.52</ele>
        <time>2014-10-04T07:32:28Z</time>
      </trkpt>
      <trkpt lat="45.67645" lon="2.90232">
        <ele>1011.44</ele>
        <time>2014-10-04T07:32:43Z</time>
      </trkpt>
      <trkpt lat="45.67591" lon="2.90234">
        <ele>1010.96</ele>
        <time>2014-10-04T07:32:58Z</time>
      </trkpt>
      <trkpt lat="45.67567" lon="2.90235">
        <ele>1010.48</ele>
        <time>2014-10-04T07:33:03Z</time>
      </trkpt>
      <trkpt lat="45.67562" lon="2.90234">
        <ele>1010.48</ele>
        <time>2014-10-04T07:33:04Z</time>
      </trkpt>
      <trkpt lat="45.67553" lon="2.90235">
        <ele>1010.48</ele>
        <time>2014-10-04T07:33:06Z</time>
      </trkpt>
      <trkpt lat="45.67548" lon="2.90236">
        <ele>1010.48</ele>
        <time>2014-10-04T07:33:07Z</time>
      </trkpt>
      <trkpt lat="45.67543" lon="2.90237">
        <ele>1010.96</ele>
        <time>2014-10-04T07:33:08Z</time>
      </trkpt>
      <trkpt lat="45.67539" lon="2.90237">
        <ele>1010.48</ele>
        <time>2014-10-04T07:33:09Z</time>
      </trkpt>
      <trkpt lat="45.67534" lon="2.90236">
        <ele>1010.48</ele>
        <time>2014-10-04T07:33:10Z</time>
      </trkpt>
      <trkpt lat="45.67472" lon="2.90238">
        <ele>1010.96</ele>
        <time>2014-10-04T07:33:24Z</time>
      </trkpt>
      <trkpt lat="45.67468" lon="2.90238">
        <ele>1010.96</ele>
        <time>2014-10-04T07:33:25Z</time>
      </trkpt>
      <trkpt lat="45.67464" lon="2.90238">
        <ele>1011.44</ele>
        <time>2014-10-04T07:33:26Z</time>
      </trkpt>
      <trkpt lat="45.67461" lon="2.90239">
        <ele>1011.44</ele>
        <time>2014-10-04T07:33:27Z</time>
      </trkpt>
      <trkpt lat="45.67457" lon="2.90239">
        <ele>1011.44</ele>
        <time>2014-10-04T07:33:28Z</time>
      </trkpt>
      <trkpt lat="45.67409" lon="2.9024">
        <ele>1011.93</ele>
        <time>2014-10-04T07:33:40Z</time>
      </trkpt>
      <trkpt lat="45.67405" lon="2.90241">
        <ele>1011.93</ele>
        <time>2014-10-04T07:33:41Z</time>
      </trkpt>
      <trkpt lat="45.67401" lon="2.90242">
        <ele>1011.93</ele>
        <time>2014-10-04T07:33:42Z</time>
      </trkpt>
      <trkpt lat="45.67324" lon="2.90244">
        <ele>1010.48</ele>
        <time>2014-10-04T07:33:59Z</time>
      </trkpt>
      <trkpt lat="45.67304" lon="2.90245">
        <ele>1010.48</ele>
        <time>2014-10-04T07:34:03Z</time>
      </trkpt>
      <trkpt lat="45.67299" lon="2.90246">
        <ele>1010.48</ele>
        <time>2014-10-04T07:34:04Z</time>
      </trkpt>
      <trkpt lat="45.67209" lon="2.90253">
        <ele>1009.04</ele>
        <time>2014-10-04T07:34:22Z</time>
      </trkpt>
      <trkpt lat="45.67201" lon="2.90254">
        <ele>1009.04</ele>
        <time>2014-10-04T07:34:24Z</time>
      </trkpt>
      <trkpt lat="45.67198" lon="2.90254">
        <ele>1009.04</ele>
        <time>2014-10-04T07:34:25Z</time>
      </trkpt>
      <trkpt lat="45.67195" lon="2.90255">
        <ele>1009.04</ele>
        <time>2014-10-04T07:34:26Z</time>
      </trkpt>
      <trkpt lat="45.67192" lon="2.90257">
        <ele>1009.04</ele>
        <time>2014-10-04T07:34:27Z</time>
      </trkpt>
      <trkpt lat="45.67189" lon="2.90259">
        <ele>1009.04</ele>
        <time>2014-10-04T07:34:28Z</time>
      </trkpt>
      <trkpt lat="45.67186" lon="2.90262">
        <ele>1009.52</ele>
        <time>2014-10-04T07:34:29Z</time>
      </trkpt>
      <trkpt lat="45.67182" lon="2.90263">
        <ele>1009.52</ele>
        <time>2014-10-04T07:34:30Z</time>
      </trkpt>
      <trkpt lat="45.67179" lon="2.90263">
        <ele>1009.52</ele>
        <time>2014-10-04T07:34:31Z</time>
      </trkpt>
      <trkpt lat="45.6714" lon="2.90278">
        <ele>1011.93</ele>
        <time>2014-10-04T07:34:44Z</time>
      </trkpt>
      <trkpt lat="45.67104" lon="2.90292">
        <ele>1014.33</ele>
        <time>2014-10-04T07:34:58Z</time>
      </trkpt>
      <trkpt lat="45.67056" lon="2.90307">
        <ele>1016.73</ele>
        <time>2014-10-04T07:35:17Z</time>
      </trkpt>
      <trkpt lat="45.67018" lon="2.90303">
        <ele>1018.65</ele>
        <time>2014-10-04T07:35:32Z</time>
      </trkpt>
      <trkpt lat="45.6698" lon="2.90299">
        <ele>1020.1</ele>
        <time>2014-10-04T07:35:46Z</time>
      </trkpt>
      <trkpt lat="45.66943" lon="2.903">
        <ele>1021.54</ele>
        <time>2014-10-04T07:35:59Z</time>
      </trkpt>
      <trkpt lat="45.66911" lon="2.90313">
        <ele>1022.98</ele>
        <time>2014-10-04T07:36:12Z</time>
      </trkpt>
      <trkpt lat="45.66886" lon="2.90322">
        <ele>1024.42</ele>
        <time>2014-10-04T07:36:24Z</time>
      </trkpt>
      <trkpt lat="45.66861" lon="2.90332">
        <ele>1026.34</ele>
        <time>2014-10-04T07:36:37Z</time>
      </trkpt>
      <trkpt lat="45.66838" lon="2.90342">
        <ele>1027.79</ele>
        <time>2014-10-04T07:36:49Z</time>
      </trkpt>
      <trkpt lat="45.66836" lon="2.90344">
        <ele>1028.27</ele>
        <time>2014-10-04T07:36:50Z</time>
      </trkpt>
      <trkpt lat="45.66834" lon="2.90346">
        <ele>1028.27</ele>
        <time>2014-10-04T07:36:51Z</time>
      </trkpt>
      <trkpt lat="45.66832" lon="2.90346">
        <ele>1028.27</ele>
        <time>2014-10-04T07:36:52Z</time>
      </trkpt>
      <trkpt lat="45.66831" lon="2.90347">
        <ele>1028.27</ele>
        <time>2014-10-04T07:36:53Z</time>
      </trkpt>
      <trkpt lat="45.66829" lon="2.90348">
        <ele>1028.27</ele>
        <time>2014-10-04T07:36:54Z</time>
      </trkpt>
      <trkpt lat="45.66827" lon="2.90349">
        <ele>1028.75</ele>
        <time>2014-10-04T07:36:55Z</time>
      </trkpt>
      <trkpt lat="45.66825" lon="2.9035">
        <ele>1028.75</ele>
        <time>2014-10-04T07:36:56Z</time>
      </trkpt>
      <trkpt lat="45.66823" lon="2.90351">
        <ele>1028.75</ele>
        <time>2014-10-04T07:36:57Z</time>
      </trkpt>
      <trkpt lat="45.66821" lon="2.90351">
        <ele>1028.75</ele>
        <time>2014-10-04T07:36:58Z</time>
      </trkpt>
      <trkpt lat="45.66819" lon="2.90352">
        <ele>1028.75</ele>
        <time>2014-10-04T07:36:59Z</time>
      </trkpt>
      <trkpt lat="45.66817" lon="2.90353">
        <ele>1029.23</ele>
        <time>2014-10-04T07:37:00Z</time>
      </trkpt>
      <trkpt lat="45.66815" lon="2.90354">
        <ele>1029.23</ele>
        <time>2014-10-04T07:37:01Z</time>
      </trkpt>
      <trkpt lat="45.66813" lon="2.90355">
        <ele>1029.23</ele>
        <time>2014-10-04T07:37:02Z</time>
      </trkpt>
      <trkpt lat="45.66811" lon="2.90355">
        <ele>1029.23</ele>
        <time>2014-10-04T07:37:03Z</time>
      </trkpt>
      <trkpt lat="45.66809" lon="2.90356">
        <ele>1029.23</ele>
        <time>2014-10-04T07:37:04Z</time>
      </trkpt>
      <trkpt lat="45.66807" lon="2.90357">
        <ele>1029.23</ele>
        <time>2014-10-04T07:37:05Z</time>
      </trkpt>
      <trkpt lat="45.66805" lon="2.90358">
        <ele>1029.71</ele>
        <time>2014-10-04T07:37:06Z</time>
      </trkpt>
      <trkpt lat="45.66803" lon="2.90359">
        <ele>1029.71</ele>
        <time>2014-10-04T07:37:07Z</time>
      </trkpt>
      <trkpt lat="45.66801" lon="2.9036">
        <ele>1030.19</ele>
        <time>2014-10-04T07:37:08Z</time>
      </trkpt>
      <trkpt lat="45.668" lon="2.90361">
        <ele>1030.19</ele>
        <time>2014-10-04T07:37:09Z</time>
      </trkpt>
      <trkpt lat="45.66771" lon="2.90372">
        <ele>1031.63</ele>
        <time>2014-10-04T07:37:25Z</time>
      </trkpt>
      <trkpt lat="45.66739" lon="2.90386">
        <ele>1034.04</ele>
        <time>2014-10-04T07:37:42Z</time>
      </trkpt>
      <trkpt lat="45.66701" lon="2.9041">
        <ele>1036.92</ele>
        <time>2014-10-04T07:38:01Z</time>
      </trkpt>
      <trkpt lat="45.6667" lon="2.9043">
        <ele>1037.88</ele>
        <time>2014-10-04T07:38:16Z</time>
      </trkpt>
      <trkpt lat="45.66627" lon="2.90464">
        <ele>1039.32</ele>
        <time>2014-10-04T07:38:35Z</time>
      </trkpt>
      <trkpt lat="45.66623" lon="2.90467">
        <ele>1039.32</ele>
        <time>2014-10-04T07:38:37Z</time>
      </trkpt>
      <trkpt lat="45.66621" lon="2.90466">
        <ele>1039.32</ele>
        <time>2014-10-04T07:38:38Z</time>
      </trkpt>
      <trkpt lat="45.66619" lon="2.90466">
        <ele>1039.32</ele>
        <time>2014-10-04T07:38:39Z</time>
      </trkpt>
      <trkpt lat="45.66615" lon="2.90462">
        <ele>1039.8</ele>
        <time>2014-10-04T07:38:42Z</time>
      </trkpt>
      <trkpt lat="45.66614" lon="2.90457">
        <ele>1039.8</ele>
        <time>2014-10-04T07:38:55Z</time>
      </trkpt>
      <trkpt lat="45.66614" lon="2.90457">
        <ele>1039.8</ele>
        <time>2014-10-04T07:39:19Z</time>
      </trkpt>
      <trkpt lat="45.66615" lon="2.90457">
        <ele>1039.8</ele>
        <time>2014-10-04T07:39:48Z</time>
      </trkpt>
      <trkpt lat="45.66615" lon="2.90457">
        <ele>1039.8</ele>
        <time>2014-10-04T07:40:10Z</time>
      </trkpt>
      <trkpt lat="45.66615" lon="2.90458">
        <ele>1039.8</ele>
        <time>2014-10-04T07:40:41Z</time>
      </trkpt>
      <trkpt lat="45.66615" lon="2.90458">
        <ele>1039.8</ele>
        <time>2014-10-04T07:41:12Z</time>
      </trkpt>
      <trkpt lat="45.66615" lon="2.90457">
        <ele>1039.8</ele>
        <time>2014-10-04T07:41:44Z</time>
      </trkpt>
      <trkpt lat="45.66615" lon="2.90457">
        <ele>1039.8</ele>
        <time>2014-10-04T07:42:16Z</time>
      </trkpt>
      <trkpt lat="45.66615" lon="2.90457">
        <ele>1039.8</ele>
        <time>2014-10-04T07:42:49Z</time>
      </trkpt>
      <trkpt lat="45.66614" lon="2.90454">
        <ele>1040.28</ele>
        <time>2014-10-04T07:43:03Z</time>
      </trkpt>
      <trkpt lat="45.66613" lon="2.90452">
        <ele>1040.28</ele>
        <time>2014-10-04T07:43:04Z</time>
      </trkpt>
      <trkpt lat="45.66597" lon="2.90403">
        <ele>1038.84</ele>
        <time>2014-10-04T07:43:17Z</time>
      </trkpt>
      <trkpt lat="45.66569" lon="2.90331">
        <ele>1036.92</ele>
        <time>2014-10-04T07:43:32Z</time>
      </trkpt>
      <trkpt lat="45.66536" lon="2.90243">
        <ele>1034.04</ele>
        <time>2014-10-04T07:43:46Z</time>
      </trkpt>
      <trkpt lat="45.66496" lon="2.90141">
        <ele>1033.07</ele>
        <time>2014-10-04T07:44:02Z</time>
      </trkpt>
      <trkpt lat="45.66475" lon="2.901">
        <ele>1032.59</ele>
        <time>2014-10-04T07:44:09Z</time>
      </trkpt>
      <trkpt lat="45.66472" lon="2.90094">
        <ele>1033.07</ele>
        <time>2014-10-04T07:44:10Z</time>
      </trkpt>
      <trkpt lat="45.66466" lon="2.90083">
        <ele>1033.07</ele>
        <time>2014-10-04T07:44:12Z</time>
      </trkpt>
      <trkpt lat="45.66459" lon="2.90073">
        <ele>1033.07</ele>
        <time>2014-10-04T07:44:14Z</time>
      </trkpt>
      <trkpt lat="45.66424" lon="2.9004">
        <ele>1034.52</ele>
        <time>2014-10-04T07:44:25Z</time>
      </trkpt>
      <trkpt lat="45.66368" lon="2.9003">
        <ele>1034.52</ele>
        <time>2014-10-04T07:44:41Z</time>
      </trkpt>
      <trkpt lat="45.66352" lon="2.90033">
        <ele>1033.55</ele>
        <time>2014-10-04T07:44:45Z</time>
      </trkpt>
      <trkpt lat="45.66347" lon="2.90033">
        <ele>1033.55</ele>
        <time>2014-10-04T07:44:46Z</time>
      </trkpt>
      <trkpt lat="45.66343" lon="2.90032">
        <ele>1034.04</ele>
        <time>2014-10-04T07:44:47Z</time>
      </trkpt>
      <trkpt lat="45.66339" lon="2.9003">
        <ele>1033.55</ele>
        <time>2014-10-04T07:44:48Z</time>
      </trkpt>
      <trkpt lat="45.66336" lon="2.90026">
        <ele>1034.04</ele>
        <time>2014-10-04T07:44:49Z</time>
      </trkpt>
      <trkpt lat="45.66334" lon="2.90022">
        <ele>1034.04</ele>
        <time>2014-10-04T07:44:50Z</time>
      </trkpt>
      <trkpt lat="45.66333" lon="2.90017">
        <ele>1034.04</ele>
        <time>2014-10-04T07:44:51Z</time>
      </trkpt>
      <trkpt lat="45.66332" lon="2.90013">
        <ele>1034.04</ele>
        <time>2014-10-04T07:44:52Z</time>
      </trkpt>
      <trkpt lat="45.66332" lon="2.90009">
        <ele>1034.52</ele>
        <time>2014-10-04T07:44:53Z</time>
      </trkpt>
      <trkpt lat="45.66331" lon="2.90005">
        <ele>1034.52</ele>
        <time>2014-10-04T07:44:54Z</time>
      </trkpt>
      <trkpt lat="45.6633" lon="2.89976">
        <ele>1037.88</ele>
        <time>2014-10-04T07:45:05Z</time>
      </trkpt>
      <trkpt lat="45.66329" lon="2.89969">
        <ele>1038.36</ele>
        <time>2014-10-04T07:45:08Z</time>
      </trkpt>
      <trkpt lat="45.66329" lon="2.89932">
        <ele>1040.28</ele>
        <time>2014-10-04T07:45:22Z</time>
      </trkpt>
      <trkpt lat="45.66333" lon="2.89886">
        <ele>1041.73</ele>
        <time>2014-10-04T07:45:37Z</time>
      </trkpt>
      <trkpt lat="45.66327" lon="2.89834">
        <ele>1044.13</ele>
        <time>2014-10-04T07:45:53Z</time>
      </trkpt>
      <trkpt lat="45.66325" lon="2.89801">
        <ele>1046.05</ele>
        <time>2014-10-04T07:46:04Z</time>
      </trkpt>
      <trkpt lat="45.66337" lon="2.89761">
        <ele>1047.49</ele>
        <time>2014-10-04T07:46:17Z</time>
      </trkpt>
      <trkpt lat="45.66348" lon="2.89712">
        <ele>1049.9</ele>
        <time>2014-10-04T07:46:33Z</time>
      </trkpt>
      <trkpt lat="45.66355" lon="2.89679">
        <ele>1052.78</ele>
        <time>2014-10-04T07:46:45Z</time>
      </trkpt>
      <trkpt lat="45.66362" lon="2.89636">
        <ele>1053.74</ele>
        <time>2014-10-04T07:46:59Z</time>
      </trkpt>
      <trkpt lat="45.6636" lon="2.89634">
        <ele>1053.74</ele>
        <time>2014-10-04T07:47:00Z</time>
      </trkpt>
      <trkpt lat="45.66357" lon="2.89632">
        <ele>1054.22</ele>
        <time>2014-10-04T07:47:01Z</time>
      </trkpt>
      <trkpt lat="45.66355" lon="2.8963">
        <ele>1053.74</ele>
        <time>2014-10-04T07:47:02Z</time>
      </trkpt>
      <trkpt lat="45.66353" lon="2.89629">
        <ele>1054.22</ele>
        <time>2014-10-04T07:47:03Z</time>
      </trkpt>
      <trkpt lat="45.66313" lon="2.89607">
        <ele>1055.18</ele>
        <time>2014-10-04T07:47:18Z</time>
      </trkpt>
      <trkpt lat="45.66275" lon="2.89586">
        <ele>1056.63</ele>
        <time>2014-10-04T07:47:33Z</time>
      </trkpt>
      <trkpt lat="45.66242" lon="2.89566">
        <ele>1058.55</ele>
        <time>2014-10-04T07:47:46Z</time>
      </trkpt>
      <trkpt lat="45.66189" lon="2.89537">
        <ele>1060.95</ele>
        <time>2014-10-04T07:48:05Z</time>
      </trkpt>
      <trkpt lat="45.66145" lon="2.89534">
        <ele>1061.43</ele>
        <time>2014-10-04T07:48:19Z</time>
      </trkpt>
      <trkpt lat="45.66089" lon="2.89538">
        <ele>1062.39</ele>
        <time>2014-10-04T07:48:36Z</time>
      </trkpt>
      <trkpt lat="45.66048" lon="2.89544">
        <ele>1062.87</ele>
        <time>2014-10-04T07:48:48Z</time>
      </trkpt>
      <trkpt lat="45.66007" lon="2.89546">
        <ele>1063.36</ele>
        <time>2014-10-04T07:49:01Z</time>
      </trkpt>
      <trkpt lat="45.65961" lon="2.89551">
        <ele>1064.32</ele>
        <time>2014-10-04T07:49:15Z</time>
      </trkpt>
      <trkpt lat="45.65915" lon="2.89554">
        <ele>1065.28</ele>
        <time>2014-10-04T07:49:29Z</time>
      </trkpt>
      <trkpt lat="45.65872" lon="2.89558">
        <ele>1066.72</ele>
        <time>2014-10-04T07:49:44Z</time>
      </trkpt>
      <trkpt lat="45.65823" lon="2.89561">
        <ele>1067.68</ele>
        <time>2014-10-04T07:50:01Z</time>
      </trkpt>
      <trkpt lat="45.65777" lon="2.89565">
        <ele>1069.6</ele>
        <time>2014-10-04T07:50:17Z</time>
      </trkpt>
      <trkpt lat="45.65723" lon="2.89571">
        <ele>1070.57</ele>
        <time>2014-10-04T07:50:34Z</time>
      </trkpt>
      <trkpt lat="45.65675" lon="2.89574">
        <ele>1072.97</ele>
        <time>2014-10-04T07:50:52Z</time>
      </trkpt>
      <trkpt lat="45.65649" lon="2.89575">
        <ele>1075.37</ele>
        <time>2014-10-04T07:51:06Z</time>
      </trkpt>
      <trkpt lat="45.65616" lon="2.89579">
        <ele>1077.29</ele>
        <time>2014-10-04T07:51:22Z</time>
      </trkpt>
      <trkpt lat="45.65582" lon="2.89582">
        <ele>1079.22</ele>
        <time>2014-10-04T07:51:39Z</time>
      </trkpt>
      <trkpt lat="45.65548" lon="2.89586">
        <ele>1080.66</ele>
        <time>2014-10-04T07:51:52Z</time>
      </trkpt>
      <trkpt lat="45.65518" lon="2.89586">
        <ele>1082.58</ele>
        <time>2014-10-04T07:52:03Z</time>
      </trkpt>
      <trkpt lat="45.65498" lon="2.89585">
        <ele>1084.02</ele>
        <time>2014-10-04T07:52:12Z</time>
      </trkpt>
      <trkpt lat="45.65496" lon="2.89587">
        <ele>1084.02</ele>
        <time>2014-10-04T07:52:13Z</time>
      </trkpt>
      <trkpt lat="45.65495" lon="2.8959">
        <ele>1084.02</ele>
        <time>2014-10-04T07:52:14Z</time>
      </trkpt>
      <trkpt lat="45.65495" lon="2.89594">
        <ele>1084.02</ele>
        <time>2014-10-04T07:52:15Z</time>
      </trkpt>
      <trkpt lat="45.65495" lon="2.89598">
        <ele>1084.02</ele>
        <time>2014-10-04T07:52:16Z</time>
      </trkpt>
      <trkpt lat="45.65495" lon="2.89602">
        <ele>1084.02</ele>
        <time>2014-10-04T07:52:17Z</time>
      </trkpt>
      <trkpt lat="45.65495" lon="2.89606">
        <ele>1084.02</ele>
        <time>2014-10-04T07:52:18Z</time>
      </trkpt>
      <trkpt lat="45.655" lon="2.89663">
        <ele>1083.06</ele>
        <time>2014-10-04T07:52:29Z</time>
      </trkpt>
      <trkpt lat="45.655" lon="2.89669">
        <ele>1082.58</ele>
        <time>2014-10-04T07:52:30Z</time>
      </trkpt>
      <trkpt lat="45.65501" lon="2.89686">
        <ele>1082.1</ele>
        <time>2014-10-04T07:52:33Z</time>
      </trkpt>
      <trkpt lat="45.65504" lon="2.89722">
        <ele>1082.1</ele>
        <time>2014-10-04T07:52:39Z</time>
      </trkpt>
      <trkpt lat="45.65509" lon="2.89798">
        <ele>1081.14</ele>
        <time>2014-10-04T07:52:51Z</time>
      </trkpt>
      <trkpt lat="45.6551" lon="2.89805">
        <ele>1080.66</ele>
        <time>2014-10-04T07:52:52Z</time>
      </trkpt>
      <trkpt lat="45.65513" lon="2.89849">
        <ele>1079.7</ele>
        <time>2014-10-04T07:52:58Z</time>
      </trkpt>
      <trkpt lat="45.65514" lon="2.89857">
        <ele>1079.7</ele>
        <time>2014-10-04T07:52:59Z</time>
      </trkpt>
      <trkpt lat="45.65516" lon="2.8992">
        <ele>1078.26</ele>
        <time>2014-10-04T07:53:07Z</time>
      </trkpt>
      <trkpt lat="45.65515" lon="2.89943">
        <ele>1078.26</ele>
        <time>2014-10-04T07:53:10Z</time>
      </trkpt>
      <trkpt lat="45.65508" lon="2.89998">
        <ele>1077.29</ele>
        <time>2014-10-04T07:53:17Z</time>
      </trkpt>
      <trkpt lat="45.65505" lon="2.90004">
        <ele>1076.81</ele>
        <time>2014-10-04T07:53:18Z</time>
      </trkpt>
      <trkpt lat="45.65501" lon="2.90008">
        <ele>1076.81</ele>
        <time>2014-10-04T07:53:19Z</time>
      </trkpt>
      <trkpt lat="45.65497" lon="2.9001">
        <ele>1076.81</ele>
        <time>2014-10-04T07:53:20Z</time>
      </trkpt>
      <trkpt lat="45.65493" lon="2.90011">
        <ele>1077.29</ele>
        <time>2014-10-04T07:53:21Z</time>
      </trkpt>
      <trkpt lat="45.6549" lon="2.90011">
        <ele>1077.29</ele>
        <time>2014-10-04T07:53:22Z</time>
      </trkpt>
      <trkpt lat="45.65488" lon="2.9001">
        <ele>1077.78</ele>
        <time>2014-10-04T07:53:23Z</time>
      </trkpt>
      <trkpt lat="45.65486" lon="2.9001">
        <ele>1078.26</ele>
        <time>2014-10-04T07:53:24Z</time>
      </trkpt>
      <trkpt lat="45.65483" lon="2.90009">
        <ele>1078.26</ele>
        <time>2014-10-04T07:53:25Z</time>
      </trkpt>
      <trkpt lat="45.65481" lon="2.90009">
        <ele>1078.26</ele>
        <time>2014-10-04T07:53:26Z</time>
      </trkpt>
      <trkpt lat="45.65479" lon="2.9001">
        <ele>1078.26</ele>
        <time>2014-10-04T07:53:27Z</time>
      </trkpt>
      <trkpt lat="45.65477" lon="2.9001">
        <ele>1078.26</ele>
        <time>2014-10-04T07:53:28Z</time>
      </trkpt>
      <trkpt lat="45.65445" lon="2.90007">
        <ele>1079.7</ele>
        <time>2014-10-04T07:53:40Z</time>
      </trkpt>
      <trkpt lat="45.6541" lon="2.90002">
        <ele>1081.14</ele>
        <time>2014-10-04T07:53:54Z</time>
      </trkpt>
      <trkpt lat="45.65361" lon="2.9">
        <ele>1082.1</ele>
        <time>2014-10-04T07:54:11Z</time>
      </trkpt>
      <trkpt lat="45.65334" lon="2.89997">
        <ele>1084.5</ele>
        <time>2014-10-04T07:54:24Z</time>
      </trkpt>
      <trkpt lat="45.65328" lon="2.89971">
        <ele>1085.47</ele>
        <time>2014-10-04T07:54:35Z</time>
      </trkpt>
      <trkpt lat="45.65326" lon="2.89916">
        <ele>1086.91</ele>
        <time>2014-10-04T07:54:53Z</time>
      </trkpt>
      <trkpt lat="45.65318" lon="2.89883">
        <ele>1088.83</ele>
        <time>2014-10-04T07:55:06Z</time>
      </trkpt>
      <trkpt lat="45.65307" lon="2.89846">
        <ele>1091.23</ele>
        <time>2014-10-04T07:55:23Z</time>
      </trkpt>
      <trkpt lat="45.65296" lon="2.89812">
        <ele>1093.16</ele>
        <time>2014-10-04T07:55:38Z</time>
      </trkpt>
      <trkpt lat="45.65285" lon="2.89775">
        <ele>1095.08</ele>
        <time>2014-10-04T07:55:53Z</time>
      </trkpt>
      <trkpt lat="45.65276" lon="2.89741">
        <ele>1096.52</ele>
        <time>2014-10-04T07:56:08Z</time>
      </trkpt>
      <trkpt lat="45.65265" lon="2.89709">
        <ele>1097.96</ele>
        <time>2014-10-04T07:56:23Z</time>
      </trkpt>
      <trkpt lat="45.6524" lon="2.89704">
        <ele>1099.4</ele>
        <time>2014-10-04T07:56:37Z</time>
      </trkpt>
      <trkpt lat="45.65209" lon="2.89701">
        <ele>1101.33</ele>
        <time>2014-10-04T07:56:55Z</time>
      </trkpt>
      <trkpt lat="45.65183" lon="2.89694">
        <ele>1103.25</ele>
        <time>2014-10-04T07:57:10Z</time>
      </trkpt>
      <trkpt lat="45.65156" lon="2.89653">
        <ele>1103.73</ele>
        <time>2014-10-04T07:57:25Z</time>
      </trkpt>
      <trkpt lat="45.65123" lon="2.89612">
        <ele>1102.29</ele>
        <time>2014-10-04T07:57:40Z</time>
      </trkpt>
      <trkpt lat="45.65088" lon="2.89635">
        <ele>1101.33</ele>
        <time>2014-10-04T07:57:50Z</time>
      </trkpt>
      <trkpt lat="45.65079" lon="2.8964">
        <ele>1100.85</ele>
        <time>2014-10-04T07:57:52Z</time>
      </trkpt>
      <trkpt lat="45.65012" lon="2.89664">
        <ele>1099.89</ele>
        <time>2014-10-04T07:58:07Z</time>
      </trkpt>
      <trkpt lat="45.6495" lon="2.89686">
        <ele>1100.85</ele>
        <time>2014-10-04T07:58:24Z</time>
      </trkpt>
      <trkpt lat="45.64894" lon="2.89707">
        <ele>1102.29</ele>
        <time>2014-10-04T07:58:41Z</time>
      </trkpt>
      <trkpt lat="45.64862" lon="2.89697">
        <ele>1102.29</ele>
        <time>2014-10-04T07:58:53Z</time>
      </trkpt>
      <trkpt lat="45.64831" lon="2.8964">
        <ele>1101.81</ele>
        <time>2014-10-04T07:59:07Z</time>
      </trkpt>
      <trkpt lat="45.64779" lon="2.89541">
        <ele>1099.4</ele>
        <time>2014-10-04T07:59:23Z</time>
      </trkpt>
      <trkpt lat="45.64726" lon="2.89441">
        <ele>1098.44</ele>
        <time>2014-10-04T07:59:39Z</time>
      </trkpt>
      <trkpt lat="45.6468" lon="2.89355">
        <ele>1099.4</ele>
        <time>2014-10-04T07:59:55Z</time>
      </trkpt>
      <trkpt lat="45.64637" lon="2.89273">
        <ele>1100.37</ele>
        <time>2014-10-04T08:00:11Z</time>
      </trkpt>
      <trkpt lat="45.64632" lon="2.89263">
        <ele>1100.37</ele>
        <time>2014-10-04T08:00:13Z</time>
      </trkpt>
      <trkpt lat="45.64629" lon="2.89259">
        <ele>1100.37</ele>
        <time>2014-10-04T08:00:14Z</time>
      </trkpt>
      <trkpt lat="45.64626" lon="2.89255">
        <ele>1100.37</ele>
        <time>2014-10-04T08:00:15Z</time>
      </trkpt>
      <trkpt lat="45.64622" lon="2.89252">
        <ele>1100.37</ele>
        <time>2014-10-04T08:00:16Z</time>
      </trkpt>
      <trkpt lat="45.64619" lon="2.8925">
        <ele>1100.37</ele>
        <time>2014-10-04T08:00:17Z</time>
      </trkpt>
      <trkpt lat="45.64616" lon="2.8925">
        <ele>1100.37</ele>
        <time>2014-10-04T08:00:18Z</time>
      </trkpt>
      <trkpt lat="45.64613" lon="2.89251">
        <ele>1100.85</ele>
        <time>2014-10-04T08:00:19Z</time>
      </trkpt>
      <trkpt lat="45.64611" lon="2.89254">
        <ele>1100.37</ele>
        <time>2014-10-04T08:00:20Z</time>
      </trkpt>
      <trkpt lat="45.64608" lon="2.89257">
        <ele>1100.37</ele>
        <time>2014-10-04T08:00:21Z</time>
      </trkpt>
      <trkpt lat="45.64606" lon="2.8926">
        <ele>1100.37</ele>
        <time>2014-10-04T08:00:22Z</time>
      </trkpt>
      <trkpt lat="45.64593" lon="2.89287">
        <ele>1099.89</ele>
        <time>2014-10-04T08:00:28Z</time>
      </trkpt>
      <trkpt lat="45.6459" lon="2.8929">
        <ele>1099.4</ele>
        <time>2014-10-04T08:00:29Z</time>
      </trkpt>
      <trkpt lat="45.64587" lon="2.89295">
        <ele>1099.4</ele>
        <time>2014-10-04T08:00:30Z</time>
      </trkpt>
      <trkpt lat="45.64585" lon="2.893">
        <ele>1099.4</ele>
        <time>2014-10-04T08:00:31Z</time>
      </trkpt>
      <trkpt lat="45.64583" lon="2.89305">
        <ele>1099.4</ele>
        <time>2014-10-04T08:00:32Z</time>
      </trkpt>
      <trkpt lat="45.6458" lon="2.89309">
        <ele>1099.4</ele>
        <time>2014-10-04T08:00:33Z</time>
      </trkpt>
      <trkpt lat="45.6453" lon="2.89404">
        <ele>1097.96</ele>
        <time>2014-10-04T08:00:52Z</time>
      </trkpt>
      <trkpt lat="45.64527" lon="2.89408">
        <ele>1097.48</ele>
        <time>2014-10-04T08:00:53Z</time>
      </trkpt>
      <trkpt lat="45.64522" lon="2.89417">
        <ele>1097.48</ele>
        <time>2014-10-04T08:00:55Z</time>
      </trkpt>
      <trkpt lat="45.6452" lon="2.89422">
        <ele>1097.48</ele>
        <time>2014-10-04T08:00:56Z</time>
      </trkpt>
      <trkpt lat="45.64517" lon="2.89427">
        <ele>1097.48</ele>
        <time>2014-10-04T08:00:57Z</time>
      </trkpt>
      <trkpt lat="45.64478" lon="2.89498">
        <ele>1096.04</ele>
        <time>2014-10-04T08:01:11Z</time>
      </trkpt>
      <trkpt lat="45.64474" lon="2.89502">
        <ele>1095.56</ele>
        <time>2014-10-04T08:01:12Z</time>
      </trkpt>
      <trkpt lat="45.64468" lon="2.89507">
        <ele>1095.56</ele>
        <time>2014-10-04T08:01:13Z</time>
      </trkpt>
      <trkpt lat="45.64462" lon="2.89511">
        <ele>1094.6</ele>
        <time>2014-10-04T08:01:14Z</time>
      </trkpt>
      <trkpt lat="45.64456" lon="2.89514">
        <ele>1094.12</ele>
        <time>2014-10-04T08:01:15Z</time>
      </trkpt>
      <trkpt lat="45.64449" lon="2.89516">
        <ele>1093.64</ele>
        <time>2014-10-04T08:01:16Z</time>
      </trkpt>
      <trkpt lat="45.64441" lon="2.89518">
        <ele>1093.16</ele>
        <time>2014-10-04T08:01:17Z</time>
      </trkpt>
      <trkpt lat="45.64408" lon="2.89528">
        <ele>1089.79</ele>
        <time>2014-10-04T08:01:21Z</time>
      </trkpt>
      <trkpt lat="45.64345" lon="2.8955">
        <ele>1087.39</ele>
        <time>2014-10-04T08:01:28Z</time>
      </trkpt>
      <trkpt lat="45.64338" lon="2.89557">
        <ele>1087.87</ele>
        <time>2014-10-04T08:01:29Z</time>
      </trkpt>
      <trkpt lat="45.64332" lon="2.89565">
        <ele>1088.35</ele>
        <time>2014-10-04T08:01:30Z</time>
      </trkpt>
      <trkpt lat="45.64328" lon="2.89574">
        <ele>1087.87</ele>
        <time>2014-10-04T08:01:31Z</time>
      </trkpt>
      <trkpt lat="45.64325" lon="2.89584">
        <ele>1088.35</ele>
        <time>2014-10-04T08:01:32Z</time>
      </trkpt>
      <trkpt lat="45.64322" lon="2.89593">
        <ele>1088.83</ele>
        <time>2014-10-04T08:01:33Z</time>
      </trkpt>
      <trkpt lat="45.64321" lon="2.89602">
        <ele>1089.31</ele>
        <time>2014-10-04T08:01:34Z</time>
      </trkpt>
      <trkpt lat="45.64315" lon="2.89725">
        <ele>1090.27</ele>
        <time>2014-10-04T08:01:49Z</time>
      </trkpt>
      <trkpt lat="45.64315" lon="2.89741">
        <ele>1090.27</ele>
        <time>2014-10-04T08:01:51Z</time>
      </trkpt>
      <trkpt lat="45.64313" lon="2.89748">
        <ele>1090.27</ele>
        <time>2014-10-04T08:01:52Z</time>
      </trkpt>
      <trkpt lat="45.6431" lon="2.89754">
        <ele>1090.27</ele>
        <time>2014-10-04T08:01:53Z</time>
      </trkpt>
      <trkpt lat="45.64306" lon="2.89759">
        <ele>1090.27</ele>
        <time>2014-10-04T08:01:54Z</time>
      </trkpt>
      <trkpt lat="45.64302" lon="2.89763">
        <ele>1090.75</ele>
        <time>2014-10-04T08:01:55Z</time>
      </trkpt>
      <trkpt lat="45.64299" lon="2.89768">
        <ele>1090.75</ele>
        <time>2014-10-04T08:01:56Z</time>
      </trkpt>
      <trkpt lat="45.64297" lon="2.89773">
        <ele>1090.75</ele>
        <time>2014-10-04T08:01:57Z</time>
      </trkpt>
      <trkpt lat="45.64295" lon="2.89779">
        <ele>1091.23</ele>
        <time>2014-10-04T08:01:58Z</time>
      </trkpt>
      <trkpt lat="45.64294" lon="2.89786">
        <ele>1091.23</ele>
        <time>2014-10-04T08:01:59Z</time>
      </trkpt>
      <trkpt lat="45.64292" lon="2.89792">
        <ele>1091.71</ele>
        <time>2014-10-04T08:02:00Z</time>
      </trkpt>
      <trkpt lat="45.64288" lon="2.89811">
        <ele>1091.71</ele>
        <time>2014-10-04T08:02:03Z</time>
      </trkpt>
      <trkpt lat="45.64286" lon="2.89816">
        <ele>1091.71</ele>
        <time>2014-10-04T08:02:04Z</time>
      </trkpt>
      <trkpt lat="45.64285" lon="2.89822">
        <ele>1091.71</ele>
        <time>2014-10-04T08:02:05Z</time>
      </trkpt>
      <trkpt lat="45.64283" lon="2.89828">
        <ele>1092.2</ele>
        <time>2014-10-04T08:02:06Z</time>
      </trkpt>
      <trkpt lat="45.64281" lon="2.89834">
        <ele>1092.2</ele>
        <time>2014-10-04T08:02:07Z</time>
      </trkpt>
      <trkpt lat="45.6425" lon="2.89914">
        <ele>1092.2</ele>
        <time>2014-10-04T08:02:21Z</time>
      </trkpt>
      <trkpt lat="45.64233" lon="2.89949">
        <ele>1093.16</ele>
        <time>2014-10-04T08:02:28Z</time>
      </trkpt>
      <trkpt lat="45.64211" lon="2.9">
        <ele>1093.64</ele>
        <time>2014-10-04T08:02:38Z</time>
      </trkpt>
      <trkpt lat="45.64182" lon="2.90077">
        <ele>1093.64</ele>
        <time>2014-10-04T08:02:52Z</time>
      </trkpt>
      <trkpt lat="45.64174" lon="2.90097">
        <ele>1094.12</ele>
        <time>2014-10-04T08:02:56Z</time>
      </trkpt>
      <trkpt lat="45.64153" lon="2.9015">
        <ele>1093.64</ele>
        <time>2014-10-04T08:03:06Z</time>
      </trkpt>
      <trkpt lat="45.64143" lon="2.90179">
        <ele>1094.12</ele>
        <time>2014-10-04T08:03:11Z</time>
      </trkpt>
      <trkpt lat="45.64138" lon="2.90189">
        <ele>1093.64</ele>
        <time>2014-10-04T08:03:13Z</time>
      </trkpt>
      <trkpt lat="45.64132" lon="2.90199">
        <ele>1093.64</ele>
        <time>2014-10-04T08:03:15Z</time>
      </trkpt>
      <trkpt lat="45.64095" lon="2.90281">
        <ele>1090.75</ele>
        <time>2014-10-04T08:03:28Z</time>
      </trkpt>
      <trkpt lat="45.64084" lon="2.90302">
        <ele>1090.75</ele>
        <time>2014-10-04T08:03:31Z</time>
      </trkpt>
      <trkpt lat="45.64081" lon="2.90311">
        <ele>1090.27</ele>
        <time>2014-10-04T08:03:32Z</time>
      </trkpt>
      <trkpt lat="45.64056" lon="2.90403">
        <ele>1089.79</ele>
        <time>2014-10-04T08:03:44Z</time>
      </trkpt>
      <trkpt lat="45.64034" lon="2.90485">
        <ele>1090.27</ele>
        <time>2014-10-04T08:03:57Z</time>
      </trkpt>
      <trkpt lat="45.64032" lon="2.90491">
        <ele>1090.27</ele>
        <time>2014-10-04T08:03:58Z</time>
      </trkpt>
      <trkpt lat="45.64024" lon="2.90512">
        <ele>1090.75</ele>
        <time>2014-10-04T08:04:02Z</time>
      </trkpt>
      <trkpt lat="45.64022" lon="2.90518">
        <ele>1090.75</ele>
        <time>2014-10-04T08:04:03Z</time>
      </trkpt>
      <trkpt lat="45.6402" lon="2.90523">
        <ele>1090.75</ele>
        <time>2014-10-04T08:04:04Z</time>
      </trkpt>
      <trkpt lat="45.64012" lon="2.90551">
        <ele>1091.23</ele>
        <time>2014-10-04T08:04:09Z</time>
      </trkpt>
      <trkpt lat="45.64013" lon="2.90558">
        <ele>1091.23</ele>
        <time>2014-10-04T08:04:10Z</time>
      </trkpt>
      <trkpt lat="45.64013" lon="2.90564">
        <ele>1090.75</ele>
        <time>2014-10-04T08:04:11Z</time>
      </trkpt>
      <trkpt lat="45.64015" lon="2.90571">
        <ele>1090.75</ele>
        <time>2014-10-04T08:04:12Z</time>
      </trkpt>
      <trkpt lat="45.64017" lon="2.90577">
        <ele>1090.27</ele>
        <time>2014-10-04T08:04:13Z</time>
      </trkpt>
      <trkpt lat="45.64019" lon="2.90585">
        <ele>1090.27</ele>
        <time>2014-10-04T08:04:14Z</time>
      </trkpt>
      <trkpt lat="45.64044" lon="2.90659">
        <ele>1086.91</ele>
        <time>2014-10-04T08:04:22Z</time>
      </trkpt>
      <trkpt lat="45.64077" lon="2.90753">
        <ele>1085.95</ele>
        <time>2014-10-04T08:04:32Z</time>
      </trkpt>
      <trkpt lat="45.64078" lon="2.90759">
        <ele>1085.95</ele>
        <time>2014-10-04T08:04:33Z</time>
      </trkpt>
      <trkpt lat="45.64077" lon="2.90764">
        <ele>1085.95</ele>
        <time>2014-10-04T08:04:34Z</time>
      </trkpt>
      <trkpt lat="45.64075" lon="2.90768">
        <ele>1085.95</ele>
        <time>2014-10-04T08:04:35Z</time>
      </trkpt>
      <trkpt lat="45.64072" lon="2.90772">
        <ele>1085.95</ele>
        <time>2014-10-04T08:04:36Z</time>
      </trkpt>
      <trkpt lat="45.64068" lon="2.90774">
        <ele>1086.43</ele>
        <time>2014-10-04T08:04:37Z</time>
      </trkpt>
      <trkpt lat="45.64065" lon="2.90775">
        <ele>1086.43</ele>
        <time>2014-10-04T08:04:38Z</time>
      </trkpt>
      <trkpt lat="45.64062" lon="2.90777">
        <ele>1086.43</ele>
        <time>2014-10-04T08:04:39Z</time>
      </trkpt>
      <trkpt lat="45.64059" lon="2.90779">
        <ele>1086.43</ele>
        <time>2014-10-04T08:04:40Z</time>
      </trkpt>
      <trkpt lat="45.64022" lon="2.90804">
        <ele>1086.91</ele>
        <time>2014-10-04T08:04:52Z</time>
      </trkpt>
      <trkpt lat="45.63993" lon="2.90822">
        <ele>1085.95</ele>
        <time>2014-10-04T08:05:01Z</time>
      </trkpt>
      <trkpt lat="45.63989" lon="2.90825">
        <ele>1085.95</ele>
        <time>2014-10-04T08:05:02Z</time>
      </trkpt>
      <trkpt lat="45.63986" lon="2.90827">
        <ele>1085.95</ele>
        <time>2014-10-04T08:05:03Z</time>
      </trkpt>
      <trkpt lat="45.63978" lon="2.90832">
        <ele>1085.95</ele>
        <time>2014-10-04T08:05:05Z</time>
      </trkpt>
      <trkpt lat="45.63952" lon="2.90849">
        <ele>1084.99</ele>
        <time>2014-10-04T08:05:11Z</time>
      </trkpt>
      <trkpt lat="45.63947" lon="2.90852">
        <ele>1084.99</ele>
        <time>2014-10-04T08:05:12Z</time>
      </trkpt>
      <trkpt lat="45.639" lon="2.90883">
        <ele>1084.02</ele>
        <time>2014-10-04T08:05:22Z</time>
      </trkpt>
      <trkpt lat="45.63887" lon="2.90894">
        <ele>1084.02</ele>
        <time>2014-10-04T08:05:25Z</time>
      </trkpt>
      <trkpt lat="45.63883" lon="2.90896">
        <ele>1084.02</ele>
        <time>2014-10-04T08:05:26Z</time>
      </trkpt>
      <trkpt lat="45.63838" lon="2.90927">
        <ele>1084.02</ele>
        <time>2014-10-04T08:05:37Z</time>
      </trkpt>
      <trkpt lat="45.63836" lon="2.90932">
        <ele>1084.02</ele>
        <time>2014-10-04T08:05:38Z</time>
      </trkpt>
      <trkpt lat="45.63834" lon="2.90938">
        <ele>1084.02</ele>
        <time>2014-10-04T08:05:39Z</time>
      </trkpt>
      <trkpt lat="45.63835" lon="2.90944">
        <ele>1084.5</ele>
        <time>2014-10-04T08:05:40Z</time>
      </trkpt>
      <trkpt lat="45.63836" lon="2.9095">
        <ele>1084.02</ele>
        <time>2014-10-04T08:05:41Z</time>
      </trkpt>
      <trkpt lat="45.63838" lon="2.90956">
        <ele>1083.54</ele>
        <time>2014-10-04T08:05:42Z</time>
      </trkpt>
      <trkpt lat="45.6384" lon="2.90963">
        <ele>1083.54</ele>
        <time>2014-10-04T08:05:43Z</time>
      </trkpt>
      <trkpt lat="45.63843" lon="2.9097">
        <ele>1083.06</ele>
        <time>2014-10-04T08:05:44Z</time>
      </trkpt>
      <trkpt lat="45.6386" lon="2.91023">
        <ele>1079.7</ele>
        <time>2014-10-04T08:05:50Z</time>
      </trkpt>
      <trkpt lat="45.63881" lon="2.91073">
        <ele>1076.81</ele>
        <time>2014-10-04T08:05:55Z</time>
      </trkpt>
      <trkpt lat="45.63889" lon="2.91093">
        <ele>1075.85</ele>
        <time>2014-10-04T08:05:57Z</time>
      </trkpt>
      <trkpt lat="45.63917" lon="2.9116">
        <ele>1072.49</ele>
        <time>2014-10-04T08:06:04Z</time>
      </trkpt>
      <trkpt lat="45.63921" lon="2.91206">
        <ele>1069.6</ele>
        <time>2014-10-04T08:06:08Z</time>
      </trkpt>
      <trkpt lat="45.6392" lon="2.91229">
        <ele>1068.64</ele>
        <time>2014-10-04T08:06:10Z</time>
      </trkpt>
      <trkpt lat="45.6392" lon="2.91272">
        <ele>1065.76</ele>
        <time>2014-10-04T08:06:14Z</time>
      </trkpt>
      <trkpt lat="45.63921" lon="2.91282">
        <ele>1064.8</ele>
        <time>2014-10-04T08:06:15Z</time>
      </trkpt>
      <trkpt lat="45.63932" lon="2.91327">
        <ele>1060.95</ele>
        <time>2014-10-04T08:06:19Z</time>
      </trkpt>
      <trkpt lat="45.6394" lon="2.9135">
        <ele>1057.59</ele>
        <time>2014-10-04T08:06:21Z</time>
      </trkpt>
      <trkpt lat="45.63956" lon="2.91386">
        <ele>1054.22</ele>
        <time>2014-10-04T08:06:24Z</time>
      </trkpt>
      <trkpt lat="45.63984" lon="2.91426">
        <ele>1050.86</ele>
        <time>2014-10-04T08:06:28Z</time>
      </trkpt>
      <trkpt lat="45.64031" lon="2.91497">
        <ele>1047.49</ele>
        <time>2014-10-04T08:06:35Z</time>
      </trkpt>
      <trkpt lat="45.64057" lon="2.91529">
        <ele>1044.61</ele>
        <time>2014-10-04T08:06:39Z</time>
      </trkpt>
      <trkpt lat="45.64063" lon="2.91539">
        <ele>1043.65</ele>
        <time>2014-10-04T08:06:40Z</time>
      </trkpt>
      <trkpt lat="45.64072" lon="2.91558">
        <ele>1042.21</ele>
        <time>2014-10-04T08:06:42Z</time>
      </trkpt>
      <trkpt lat="45.64089" lon="2.91589">
        <ele>1038.84</ele>
        <time>2014-10-04T08:06:45Z</time>
      </trkpt>
      <trkpt lat="45.64103" lon="2.91619">
        <ele>1035.96</ele>
        <time>2014-10-04T08:06:48Z</time>
      </trkpt>
      <trkpt lat="45.64106" lon="2.91628">
        <ele>1035.48</ele>
        <time>2014-10-04T08:06:49Z</time>
      </trkpt>
      <trkpt lat="45.6411" lon="2.91636">
        <ele>1035</ele>
        <time>2014-10-04T08:06:50Z</time>
      </trkpt>
      <trkpt lat="45.64112" lon="2.91645">
        <ele>1034.52</ele>
        <time>2014-10-04T08:06:51Z</time>
      </trkpt>
      <trkpt lat="45.64114" lon="2.91655">
        <ele>1034.52</ele>
        <time>2014-10-04T08:06:52Z</time>
      </trkpt>
      <trkpt lat="45.64123" lon="2.91713">
        <ele>1033.07</ele>
        <time>2014-10-04T08:06:58Z</time>
      </trkpt>
      <trkpt lat="45.64122" lon="2.91732">
        <ele>1032.59</ele>
        <time>2014-10-04T08:07:00Z</time>
      </trkpt>
      <trkpt lat="45.64119" lon="2.91767">
        <ele>1033.07</ele>
        <time>2014-10-04T08:07:04Z</time>
      </trkpt>
      <trkpt lat="45.64119" lon="2.91775">
        <ele>1033.07</ele>
        <time>2014-10-04T08:07:05Z</time>
      </trkpt>
      <trkpt lat="45.64121" lon="2.91782">
        <ele>1033.07</ele>
        <time>2014-10-04T08:07:06Z</time>
      </trkpt>
      <trkpt lat="45.64123" lon="2.91789">
        <ele>1033.07</ele>
        <time>2014-10-04T08:07:07Z</time>
      </trkpt>
      <trkpt lat="45.64126" lon="2.91795">
        <ele>1033.55</ele>
        <time>2014-10-04T08:07:08Z</time>
      </trkpt>
      <trkpt lat="45.64128" lon="2.91802">
        <ele>1033.55</ele>
        <time>2014-10-04T08:07:09Z</time>
      </trkpt>
      <trkpt lat="45.6413" lon="2.91809">
        <ele>1033.55</ele>
        <time>2014-10-04T08:07:10Z</time>
      </trkpt>
      <trkpt lat="45.64134" lon="2.91825">
        <ele>1032.59</ele>
        <time>2014-10-04T08:07:12Z</time>
      </trkpt>
      <trkpt lat="45.64137" lon="2.91833">
        <ele>1032.11</ele>
        <time>2014-10-04T08:07:13Z</time>
      </trkpt>
      <trkpt lat="45.64143" lon="2.91846">
        <ele>1031.15</ele>
        <time>2014-10-04T08:07:15Z</time>
      </trkpt>
      <trkpt lat="45.64146" lon="2.91851">
        <ele>1030.67</ele>
        <time>2014-10-04T08:07:16Z</time>
      </trkpt>
      <trkpt lat="45.6415" lon="2.91853">
        <ele>1030.67</ele>
        <time>2014-10-04T08:07:17Z</time>
      </trkpt>
      <trkpt lat="45.64154" lon="2.91853">
        <ele>1031.15</ele>
        <time>2014-10-04T08:07:18Z</time>
      </trkpt>
      <trkpt lat="45.64179" lon="2.91842">
        <ele>1034.04</ele>
        <time>2014-10-04T08:07:26Z</time>
      </trkpt>
      <trkpt lat="45.64215" lon="2.91841">
        <ele>1033.55</ele>
        <time>2014-10-04T08:07:38Z</time>
      </trkpt>
      <trkpt lat="45.64219" lon="2.91843">
        <ele>1033.55</ele>
        <time>2014-10-04T08:07:39Z</time>
      </trkpt>
      <trkpt lat="45.64223" lon="2.91847">
        <ele>1033.07</ele>
        <time>2014-10-04T08:07:40Z</time>
      </trkpt>
      <trkpt lat="45.64237" lon="2.91858">
        <ele>1031.63</ele>
        <time>2014-10-04T08:07:44Z</time>
      </trkpt>
      <trkpt lat="45.64242" lon="2.91858">
        <ele>1031.63</ele>
        <time>2014-10-04T08:07:45Z</time>
      </trkpt>
      <trkpt lat="45.64245" lon="2.91857">
        <ele>1032.11</ele>
        <time>2014-10-04T08:07:46Z</time>
      </trkpt>
      <trkpt lat="45.64248" lon="2.91856">
        <ele>1032.11</ele>
        <time>2014-10-04T08:07:47Z</time>
      </trkpt>
      <trkpt lat="45.64251" lon="2.91857">
        <ele>1032.59</ele>
        <time>2014-10-04T08:07:48Z</time>
      </trkpt>
      <trkpt lat="45.64252" lon="2.91858">
        <ele>1032.59</ele>
        <time>2014-10-04T08:07:49Z</time>
      </trkpt>
      <trkpt lat="45.64253" lon="2.91859">
        <ele>1032.59</ele>
        <time>2014-10-04T08:07:50Z</time>
      </trkpt>
      <trkpt lat="45.64253" lon="2.9186">
        <ele>1032.11</ele>
        <time>2014-10-04T08:07:51Z</time>
      </trkpt>
      <trkpt lat="45.64255" lon="2.91862">
        <ele>1032.11</ele>
        <time>2014-10-04T08:08:06Z</time>
      </trkpt>
      <trkpt lat="45.64255" lon="2.91864">
        <ele>1032.11</ele>
        <time>2014-10-04T08:08:26Z</time>
      </trkpt>
      <trkpt lat="45.64256" lon="2.91867">
        <ele>1032.59</ele>
        <time>2014-10-04T08:08:46Z</time>
      </trkpt>
      <trkpt lat="45.64256" lon="2.91869">
        <ele>1032.11</ele>
        <time>2014-10-04T08:09:00Z</time>
      </trkpt>
      <trkpt lat="45.64256" lon="2.91868">
        <ele>1032.11</ele>
        <time>2014-10-04T08:09:33Z</time>
      </trkpt>
      <trkpt lat="45.64256" lon="2.91867">
        <ele>1032.59</ele>
        <time>2014-10-04T08:10:08Z</time>
      </trkpt>
      <trkpt lat="45.64256" lon="2.91868">
        <ele>1032.59</ele>
        <time>2014-10-04T08:10:45Z</time>
      </trkpt>
      <trkpt lat="45.64256" lon="2.91867">
        <ele>1032.11</ele>
        <time>2014-10-04T08:11:18Z</time>
      </trkpt>
      <trkpt lat="45.64256" lon="2.91868">
        <ele>1032.11</ele>
        <time>2014-10-04T08:11:50Z</time>
      </trkpt>
      <trkpt lat="45.64256" lon="2.91868">
        <ele>1032.59</ele>
        <time>2014-10-04T08:12:23Z</time>
      </trkpt>
      <trkpt lat="45.64256" lon="2.91866">
        <ele>1032.59</ele>
        <time>2014-10-04T08:12:51Z</time>
      </trkpt>
      <trkpt lat="45.64257" lon="2.91866">
        <ele>1032.59</ele>
        <time>2014-10-04T08:13:28Z</time>
      </trkpt>
      <trkpt lat="45.64255" lon="2.91865">
        <ele>1032.59</ele>
        <time>2014-10-04T08:14:05Z</time>
      </trkpt>
      <trkpt lat="45.64255" lon="2.91866">
        <ele>1032.59</ele>
        <time>2014-10-04T08:14:40Z</time>
      </trkpt>
      <trkpt lat="45.64255" lon="2.91866">
        <ele>1032.59</ele>
        <time>2014-10-04T08:15:13Z</time>
      </trkpt>
      <trkpt lat="45.64256" lon="2.91865">
        <ele>1032.59</ele>
        <time>2014-10-04T08:15:46Z</time>
      </trkpt>
      <trkpt lat="45.64255" lon="2.91865">
        <ele>1032.59</ele>
        <time>2014-10-04T08:16:28Z</time>
      </trkpt>
      <trkpt lat="45.64256" lon="2.91863">
        <ele>1033.07</ele>
        <time>2014-10-04T08:17:09Z</time>
      </trkpt>
      <trkpt lat="45.64255" lon="2.91864">
        <ele>1033.07</ele>
        <time>2014-10-04T08:17:40Z</time>
      </trkpt>
      <trkpt lat="45.64255" lon="2.91866">
        <ele>1033.07</ele>
        <time>2014-10-04T08:17:58Z</time>
      </trkpt>
      <trkpt lat="45.64255" lon="2.91868">
        <ele>1032.59</ele>
        <time>2014-10-04T08:17:59Z</time>
      </trkpt>
      <trkpt lat="45.64256" lon="2.91871">
        <ele>1032.59</ele>
        <time>2014-10-04T08:18:00Z</time>
      </trkpt>
      <trkpt lat="45.64257" lon="2.91873">
        <ele>1032.11</ele>
        <time>2014-10-04T08:18:01Z</time>
      </trkpt>
      <trkpt lat="45.6426" lon="2.91875">
        <ele>1032.11</ele>
        <time>2014-10-04T08:18:02Z</time>
      </trkpt>
      <trkpt lat="45.6427" lon="2.9188">
        <ele>1031.15</ele>
        <time>2014-10-04T08:18:05Z</time>
      </trkpt>
      <trkpt lat="45.64274" lon="2.91881">
        <ele>1031.15</ele>
        <time>2014-10-04T08:18:06Z</time>
      </trkpt>
      <trkpt lat="45.64279" lon="2.91882">
        <ele>1030.67</ele>
        <time>2014-10-04T08:18:07Z</time>
      </trkpt>
      <trkpt lat="45.64303" lon="2.91895">
        <ele>1029.71</ele>
        <time>2014-10-04T08:18:12Z</time>
      </trkpt>
      <trkpt lat="45.64318" lon="2.91905">
        <ele>1029.23</ele>
        <time>2014-10-04T08:18:15Z</time>
      </trkpt>
      <trkpt lat="45.64322" lon="2.9191">
        <ele>1029.23</ele>
        <time>2014-10-04T08:18:16Z</time>
      </trkpt>
      <trkpt lat="45.64326" lon="2.91915">
        <ele>1029.23</ele>
        <time>2014-10-04T08:18:17Z</time>
      </trkpt>
      <trkpt lat="45.64328" lon="2.91921">
        <ele>1029.23</ele>
        <time>2014-10-04T08:18:18Z</time>
      </trkpt>
      <trkpt lat="45.6433" lon="2.91927">
        <ele>1029.23</ele>
        <time>2014-10-04T08:18:19Z</time>
      </trkpt>
      <trkpt lat="45.64332" lon="2.91932">
        <ele>1029.71</ele>
        <time>2014-10-04T08:18:20Z</time>
      </trkpt>
      <trkpt lat="45.64334" lon="2.91958">
        <ele>1030.19</ele>
        <time>2014-10-04T08:18:25Z</time>
      </trkpt>
      <trkpt lat="45.64334" lon="2.91972">
        <ele>1029.23</ele>
        <time>2014-10-04T08:18:27Z</time>
      </trkpt>
      <trkpt lat="45.64334" lon="2.9198">
        <ele>1028.75</ele>
        <time>2014-10-04T08:18:28Z</time>
      </trkpt>
      <trkpt lat="45.64335" lon="2.91989">
        <ele>1028.27</ele>
        <time>2014-10-04T08:18:29Z</time>
      </trkpt>
      <trkpt lat="45.64337" lon="2.91998">
        <ele>1027.31</ele>
        <time>2014-10-04T08:18:30Z</time>
      </trkpt>
      <trkpt lat="45.64341" lon="2.92008">
        <ele>1026.83</ele>
        <time>2014-10-04T08:18:31Z</time>
      </trkpt>
      <trkpt lat="45.64374" lon="2.92073">
        <ele>1024.9</ele>
        <time>2014-10-04T08:18:38Z</time>
      </trkpt>
      <trkpt lat="45.64384" lon="2.92085">
        <ele>1025.38</ele>
        <time>2014-10-04T08:18:40Z</time>
      </trkpt>
      <trkpt lat="45.64413" lon="2.92133">
        <ele>1026.34</ele>
        <time>2014-10-04T08:18:48Z</time>
      </trkpt>
      <trkpt lat="45.64444" lon="2.922">
        <ele>1028.75</ele>
        <time>2014-10-04T08:19:01Z</time>
      </trkpt>
      <trkpt lat="45.64446" lon="2.92206">
        <ele>1028.75</ele>
        <time>2014-10-04T08:19:02Z</time>
      </trkpt>
      <trkpt lat="45.64463" lon="2.92291">
        <ele>1027.31</ele>
        <time>2014-10-04T08:19:15Z</time>
      </trkpt>
      <trkpt lat="45.64467" lon="2.92306">
        <ele>1026.83</ele>
        <time>2014-10-04T08:19:17Z</time>
      </trkpt>
      <trkpt lat="45.6447" lon="2.92313">
        <ele>1027.31</ele>
        <time>2014-10-04T08:19:18Z</time>
      </trkpt>
      <trkpt lat="45.64472" lon="2.92321">
        <ele>1026.83</ele>
        <time>2014-10-04T08:19:19Z</time>
      </trkpt>
      <trkpt lat="45.64475" lon="2.92327">
        <ele>1026.83</ele>
        <time>2014-10-04T08:19:20Z</time>
      </trkpt>
      <trkpt lat="45.64479" lon="2.92333">
        <ele>1026.83</ele>
        <time>2014-10-04T08:19:21Z</time>
      </trkpt>
      <trkpt lat="45.64485" lon="2.92344">
        <ele>1027.31</ele>
        <time>2014-10-04T08:19:23Z</time>
      </trkpt>
      <trkpt lat="45.64491" lon="2.92355">
        <ele>1027.79</ele>
        <time>2014-10-04T08:19:25Z</time>
      </trkpt>
      <trkpt lat="45.64494" lon="2.9236">
        <ele>1027.79</ele>
        <time>2014-10-04T08:19:26Z</time>
      </trkpt>
      <trkpt lat="45.64497" lon="2.92366">
        <ele>1027.79</ele>
        <time>2014-10-04T08:19:27Z</time>
      </trkpt>
      <trkpt lat="45.64499" lon="2.92372">
        <ele>1027.79</ele>
        <time>2014-10-04T08:19:28Z</time>
      </trkpt>
      <trkpt lat="45.64502" lon="2.92377">
        <ele>1027.79</ele>
        <time>2014-10-04T08:19:29Z</time>
      </trkpt>
      <trkpt lat="45.64519" lon="2.92408">
        <ele>1028.27</ele>
        <time>2014-10-04T08:19:35Z</time>
      </trkpt>
      <trkpt lat="45.64552" lon="2.9249">
        <ele>1026.34</ele>
        <time>2014-10-04T08:19:48Z</time>
      </trkpt>
      <trkpt lat="45.64554" lon="2.92498">
        <ele>1026.34</ele>
        <time>2014-10-04T08:19:49Z</time>
      </trkpt>
      <trkpt lat="45.64556" lon="2.92507">
        <ele>1025.86</ele>
        <time>2014-10-04T08:19:50Z</time>
      </trkpt>
      <trkpt lat="45.64563" lon="2.92532">
        <ele>1025.38</ele>
        <time>2014-10-04T08:19:53Z</time>
      </trkpt>
      <trkpt lat="45.64566" lon="2.92541">
        <ele>1024.9</ele>
        <time>2014-10-04T08:19:54Z</time>
      </trkpt>
      <trkpt lat="45.64568" lon="2.9255">
        <ele>1024.42</ele>
        <time>2014-10-04T08:19:55Z</time>
      </trkpt>
      <trkpt lat="45.64571" lon="2.92558">
        <ele>1024.42</ele>
        <time>2014-10-04T08:19:56Z</time>
      </trkpt>
      <trkpt lat="45.64575" lon="2.92566">
        <ele>1023.94</ele>
        <time>2014-10-04T08:19:57Z</time>
      </trkpt>
      <trkpt lat="45.64583" lon="2.92581">
        <ele>1023.94</ele>
        <time>2014-10-04T08:19:59Z</time>
      </trkpt>
      <trkpt lat="45.64588" lon="2.92587">
        <ele>1023.94</ele>
        <time>2014-10-04T08:20:00Z</time>
      </trkpt>
      <trkpt lat="45.64594" lon="2.92592">
        <ele>1023.46</ele>
        <time>2014-10-04T08:20:01Z</time>
      </trkpt>
      <trkpt lat="45.646" lon="2.92596">
        <ele>1022.98</ele>
        <time>2014-10-04T08:20:02Z</time>
      </trkpt>
      <trkpt lat="45.64606" lon="2.92599">
        <ele>1022.5</ele>
        <time>2014-10-04T08:20:03Z</time>
      </trkpt>
      <trkpt lat="45.64613" lon="2.92602">
        <ele>1022.02</ele>
        <time>2014-10-04T08:20:04Z</time>
      </trkpt>
      <trkpt lat="45.64619" lon="2.92607">
        <ele>1021.54</ele>
        <time>2014-10-04T08:20:05Z</time>
      </trkpt>
      <trkpt lat="45.64625" lon="2.92613">
        <ele>1021.06</ele>
        <time>2014-10-04T08:20:06Z</time>
      </trkpt>
      <trkpt lat="45.64631" lon="2.92619">
        <ele>1021.06</ele>
        <time>2014-10-04T08:20:07Z</time>
      </trkpt>
      <trkpt lat="45.64644" lon="2.92632">
        <ele>1019.62</ele>
        <time>2014-10-04T08:20:09Z</time>
      </trkpt>
      <trkpt lat="45.6468" lon="2.92666">
        <ele>1017.21</ele>
        <time>2014-10-04T08:20:15Z</time>
      </trkpt>
      <trkpt lat="45.64698" lon="2.92688">
        <ele>1015.77</ele>
        <time>2014-10-04T08:20:18Z</time>
      </trkpt>
      <trkpt lat="45.64702" lon="2.92698">
        <ele>1015.29</ele>
        <time>2014-10-04T08:20:19Z</time>
      </trkpt>
      <trkpt lat="45.64706" lon="2.92707">
        <ele>1015.29</ele>
        <time>2014-10-04T08:20:20Z</time>
      </trkpt>
      <trkpt lat="45.64717" lon="2.92736">
        <ele>1014.81</ele>
        <time>2014-10-04T08:20:23Z</time>
      </trkpt>
      <trkpt lat="45.64727" lon="2.92765">
        <ele>1014.81</ele>
        <time>2014-10-04T08:20:26Z</time>
      </trkpt>
      <trkpt lat="45.64731" lon="2.92773">
        <ele>1014.33</ele>
        <time>2014-10-04T08:20:27Z</time>
      </trkpt>
      <trkpt lat="45.64736" lon="2.92781">
        <ele>1014.33</ele>
        <time>2014-10-04T08:20:28Z</time>
      </trkpt>
      <trkpt lat="45.64789" lon="2.92843">
        <ele>1014.81</ele>
        <time>2014-10-04T08:20:38Z</time>
      </trkpt>
      <trkpt lat="45.64793" lon="2.92849">
        <ele>1014.81</ele>
        <time>2014-10-04T08:20:39Z</time>
      </trkpt>
      <trkpt lat="45.64798" lon="2.92855">
        <ele>1015.29</ele>
        <time>2014-10-04T08:20:40Z</time>
      </trkpt>
      <trkpt lat="45.64839" lon="2.92903">
        <ele>1014.33</ele>
        <time>2014-10-04T08:20:49Z</time>
      </trkpt>
      <trkpt lat="45.64885" lon="2.9297">
        <ele>1012.89</ele>
        <time>2014-10-04T08:20:59Z</time>
      </trkpt>
      <trkpt lat="45.64891" lon="2.92973">
        <ele>1012.41</ele>
        <time>2014-10-04T08:21:00Z</time>
      </trkpt>
      <trkpt lat="45.64896" lon="2.92976">
        <ele>1012.89</ele>
        <time>2014-10-04T08:21:01Z</time>
      </trkpt>
      <trkpt lat="45.64902" lon="2.92977">
        <ele>1012.89</ele>
        <time>2014-10-04T08:21:02Z</time>
      </trkpt>
      <trkpt lat="45.64907" lon="2.92976">
        <ele>1013.37</ele>
        <time>2014-10-04T08:21:03Z</time>
      </trkpt>
      <trkpt lat="45.64912" lon="2.92975">
        <ele>1013.37</ele>
        <time>2014-10-04T08:21:04Z</time>
      </trkpt>
      <trkpt lat="45.64917" lon="2.92972">
        <ele>1013.85</ele>
        <time>2014-10-04T08:21:05Z</time>
      </trkpt>
      <trkpt lat="45.64922" lon="2.9297">
        <ele>1013.85</ele>
        <time>2014-10-04T08:21:06Z</time>
      </trkpt>
      <trkpt lat="45.64969" lon="2.92951">
        <ele>1011.93</ele>
        <time>2014-10-04T08:21:16Z</time>
      </trkpt>
      <trkpt lat="45.64975" lon="2.92951">
        <ele>1011.44</ele>
        <time>2014-10-04T08:21:17Z</time>
      </trkpt>
      <trkpt lat="45.65009" lon="2.92947">
        <ele>1008.08</ele>
        <time>2014-10-04T08:21:22Z</time>
      </trkpt>
      <trkpt lat="45.65031" lon="2.92945">
        <ele>1005.2</ele>
        <time>2014-10-04T08:21:25Z</time>
      </trkpt>
      <trkpt lat="45.65061" lon="2.92937">
        <ele>1001.83</ele>
        <time>2014-10-04T08:21:29Z</time>
      </trkpt>
      <trkpt lat="45.65093" lon="2.92924">
        <ele>998.47</ele>
        <time>2014-10-04T08:21:34Z</time>
      </trkpt>
      <trkpt lat="45.65099" lon="2.92919">
        <ele>997.51</ele>
        <time>2014-10-04T08:21:35Z</time>
      </trkpt>
      <trkpt lat="45.65105" lon="2.92914">
        <ele>997.02</ele>
        <time>2014-10-04T08:21:36Z</time>
      </trkpt>
      <trkpt lat="45.6511" lon="2.92907">
        <ele>996.06</ele>
        <time>2014-10-04T08:21:37Z</time>
      </trkpt>
      <trkpt lat="45.65115" lon="2.92901">
        <ele>995.1</ele>
        <time>2014-10-04T08:21:38Z</time>
      </trkpt>
      <trkpt lat="45.6512" lon="2.92894">
        <ele>994.62</ele>
        <time>2014-10-04T08:21:39Z</time>
      </trkpt>
      <trkpt lat="45.65125" lon="2.92888">
        <ele>993.66</ele>
        <time>2014-10-04T08:21:40Z</time>
      </trkpt>
      <trkpt lat="45.6513" lon="2.92884">
        <ele>993.18</ele>
        <time>2014-10-04T08:21:41Z</time>
      </trkpt>
      <trkpt lat="45.65136" lon="2.9288">
        <ele>992.7</ele>
        <time>2014-10-04T08:21:42Z</time>
      </trkpt>
      <trkpt lat="45.65141" lon="2.92878">
        <ele>991.74</ele>
        <time>2014-10-04T08:21:43Z</time>
      </trkpt>
      <trkpt lat="45.65148" lon="2.92877">
        <ele>991.26</ele>
        <time>2014-10-04T08:21:44Z</time>
      </trkpt>
      <trkpt lat="45.65154" lon="2.92878">
        <ele>990.78</ele>
        <time>2014-10-04T08:21:45Z</time>
      </trkpt>
      <trkpt lat="45.65161" lon="2.9288">
        <ele>990.3</ele>
        <time>2014-10-04T08:21:46Z</time>
      </trkpt>
      <trkpt lat="45.65167" lon="2.92883">
        <ele>990.3</ele>
        <time>2014-10-04T08:21:47Z</time>
      </trkpt>
      <trkpt lat="45.65185" lon="2.92889">
        <ele>990.3</ele>
        <time>2014-10-04T08:21:50Z</time>
      </trkpt>
      <trkpt lat="45.6519" lon="2.92893">
        <ele>990.78</ele>
        <time>2014-10-04T08:21:51Z</time>
      </trkpt>
      <trkpt lat="45.65193" lon="2.92897">
        <ele>991.26</ele>
        <time>2014-10-04T08:21:52Z</time>
      </trkpt>
      <trkpt lat="45.65195" lon="2.92902">
        <ele>991.26</ele>
        <time>2014-10-04T08:21:53Z</time>
      </trkpt>
      <trkpt lat="45.65197" lon="2.92907">
        <ele>991.74</ele>
        <time>2014-10-04T08:21:54Z</time>
      </trkpt>
      <trkpt lat="45.65198" lon="2.92912">
        <ele>992.22</ele>
        <time>2014-10-04T08:21:55Z</time>
      </trkpt>
      <trkpt lat="45.65198" lon="2.92916">
        <ele>992.7</ele>
        <time>2014-10-04T08:21:56Z</time>
      </trkpt>
      <trkpt lat="45.65207" lon="2.92956">
        <ele>995.58</ele>
        <time>2014-10-04T08:22:06Z</time>
      </trkpt>
      <trkpt lat="45.65223" lon="2.93018">
        <ele>997.51</ele>
        <time>2014-10-04T08:22:21Z</time>
      </trkpt>
      <trkpt lat="45.6524" lon="2.93081">
        <ele>998.95</ele>
        <time>2014-10-04T08:22:35Z</time>
      </trkpt>
      <trkpt lat="45.65259" lon="2.93151">
        <ele>999.91</ele>
        <time>2014-10-04T08:22:50Z</time>
      </trkpt>
      <trkpt lat="45.65284" lon="2.93206">
        <ele>1001.35</ele>
        <time>2014-10-04T08:23:04Z</time>
      </trkpt>
      <trkpt lat="45.65306" lon="2.93247">
        <ele>1003.27</ele>
        <time>2014-10-04T08:23:18Z</time>
      </trkpt>
      <trkpt lat="45.65327" lon="2.93287">
        <ele>1005.2</ele>
        <time>2014-10-04T08:23:32Z</time>
      </trkpt>
      <trkpt lat="45.65343" lon="2.93317">
        <ele>1007.12</ele>
        <time>2014-10-04T08:23:45Z</time>
      </trkpt>
      <trkpt lat="45.6536" lon="2.93347">
        <ele>1009.52</ele>
        <time>2014-10-04T08:24:00Z</time>
      </trkpt>
      <trkpt lat="45.65374" lon="2.93371">
        <ele>1010.96</ele>
        <time>2014-10-04T08:24:12Z</time>
      </trkpt>
      <trkpt lat="45.65386" lon="2.93391">
        <ele>1012.41</ele>
        <time>2014-10-04T08:24:22Z</time>
      </trkpt>
      <trkpt lat="45.65403" lon="2.93421">
        <ele>1014.33</ele>
        <time>2014-10-04T08:24:38Z</time>
      </trkpt>
      <trkpt lat="45.65408" lon="2.93427">
        <ele>1015.29</ele>
        <time>2014-10-04T08:24:42Z</time>
      </trkpt>
      <trkpt lat="45.65409" lon="2.93428">
        <ele>1015.29</ele>
        <time>2014-10-04T08:24:43Z</time>
      </trkpt>
      <trkpt lat="45.6541" lon="2.9343">
        <ele>1015.29</ele>
        <time>2014-10-04T08:24:44Z</time>
      </trkpt>
      <trkpt lat="45.65411" lon="2.93431">
        <ele>1016.25</ele>
        <time>2014-10-04T08:24:45Z</time>
      </trkpt>
      <trkpt lat="45.65413" lon="2.93433">
        <ele>1015.77</ele>
        <time>2014-10-04T08:24:46Z</time>
      </trkpt>
      <trkpt lat="45.65415" lon="2.93434">
        <ele>1015.77</ele>
        <time>2014-10-04T08:24:47Z</time>
      </trkpt>
      <trkpt lat="45.65417" lon="2.93436">
        <ele>1016.25</ele>
        <time>2014-10-04T08:24:48Z</time>
      </trkpt>
      <trkpt lat="45.65419" lon="2.93438">
        <ele>1016.25</ele>
        <time>2014-10-04T08:24:49Z</time>
      </trkpt>
      <trkpt lat="45.65451" lon="2.9347">
        <ele>1018.17</ele>
        <time>2014-10-04T08:25:06Z</time>
      </trkpt>
      <trkpt lat="45.65478" lon="2.93489">
        <ele>1020.1</ele>
        <time>2014-10-04T08:25:20Z</time>
      </trkpt>
      <trkpt lat="45.65511" lon="2.93513">
        <ele>1022.02</ele>
        <time>2014-10-04T08:25:35Z</time>
      </trkpt>
      <trkpt lat="45.65549" lon="2.93549">
        <ele>1023.46</ele>
        <time>2014-10-04T08:25:51Z</time>
      </trkpt>
      <trkpt lat="45.65581" lon="2.93591">
        <ele>1024.42</ele>
        <time>2014-10-04T08:26:04Z</time>
      </trkpt>
      <trkpt lat="45.65613" lon="2.93636">
        <ele>1025.38</ele>
        <time>2014-10-04T08:26:17Z</time>
      </trkpt>
      <trkpt lat="45.65655" lon="2.93687">
        <ele>1024.9</ele>
        <time>2014-10-04T08:26:30Z</time>
      </trkpt>
      <trkpt lat="45.65716" lon="2.93755">
        <ele>1024.9</ele>
        <time>2014-10-04T08:26:47Z</time>
      </trkpt>
      <trkpt lat="45.65769" lon="2.93794">
        <ele>1026.34</ele>
        <time>2014-10-04T08:27:02Z</time>
      </trkpt>
      <trkpt lat="45.65798" lon="2.93814">
        <ele>1026.83</ele>
        <time>2014-10-04T08:27:10Z</time>
      </trkpt>
      <trkpt lat="45.65837" lon="2.93854">
        <ele>1026.83</ele>
        <time>2014-10-04T08:27:23Z</time>
      </trkpt>
      <trkpt lat="45.65867" lon="2.93928">
        <ele>1025.86</ele>
        <time>2014-10-04T08:27:38Z</time>
      </trkpt>
      <trkpt lat="45.65884" lon="2.9396">
        <ele>1023.94</ele>
        <time>2014-10-04T08:27:43Z</time>
      </trkpt>
      <trkpt lat="45.65888" lon="2.93966">
        <ele>1023.46</ele>
        <time>2014-10-04T08:27:44Z</time>
      </trkpt>
      <trkpt lat="45.65893" lon="2.93971">
        <ele>1022.98</ele>
        <time>2014-10-04T08:27:45Z</time>
      </trkpt>
      <trkpt lat="45.65899" lon="2.93976">
        <ele>1022.98</ele>
        <time>2014-10-04T08:27:46Z</time>
      </trkpt>
      <trkpt lat="45.65905" lon="2.93981">
        <ele>1022.5</ele>
        <time>2014-10-04T08:27:47Z</time>
      </trkpt>
      <trkpt lat="45.65911" lon="2.93985">
        <ele>1022.02</ele>
        <time>2014-10-04T08:27:48Z</time>
      </trkpt>
      <trkpt lat="45.65929" lon="2.93999">
        <ele>1021.54</ele>
        <time>2014-10-04T08:27:51Z</time>
      </trkpt>
      <trkpt lat="45.65934" lon="2.94005">
        <ele>1021.54</ele>
        <time>2014-10-04T08:27:52Z</time>
      </trkpt>
      <trkpt lat="45.65938" lon="2.94012">
        <ele>1021.54</ele>
        <time>2014-10-04T08:27:53Z</time>
      </trkpt>
      <trkpt lat="45.65965" lon="2.94075">
        <ele>1021.06</ele>
        <time>2014-10-04T08:28:02Z</time>
      </trkpt>
      <trkpt lat="45.65966" lon="2.94082">
        <ele>1021.06</ele>
        <time>2014-10-04T08:28:03Z</time>
      </trkpt>
      <trkpt lat="45.65972" lon="2.94128">
        <ele>1021.06</ele>
        <time>2014-10-04T08:28:11Z</time>
      </trkpt>
      <trkpt lat="45.65981" lon="2.94177">
        <ele>1020.1</ele>
        <time>2014-10-04T08:28:19Z</time>
      </trkpt>
      <trkpt lat="45.65982" lon="2.94183">
        <ele>1020.1</ele>
        <time>2014-10-04T08:28:20Z</time>
      </trkpt>
      <trkpt lat="45.65984" lon="2.94189">
        <ele>1020.1</ele>
        <time>2014-10-04T08:28:21Z</time>
      </trkpt>
      <trkpt lat="45.66011" lon="2.94266">
        <ele>1019.13</ele>
        <time>2014-10-04T08:28:35Z</time>
      </trkpt>
      <trkpt lat="45.66044" lon="2.94337">
        <ele>1017.21</ele>
        <time>2014-10-04T08:28:47Z</time>
      </trkpt>
      <trkpt lat="45.66059" lon="2.94366">
        <ele>1016.25</ele>
        <time>2014-10-04T08:28:51Z</time>
      </trkpt>
      <trkpt lat="45.66062" lon="2.94374">
        <ele>1016.25</ele>
        <time>2014-10-04T08:28:52Z</time>
      </trkpt>
      <trkpt lat="45.66064" lon="2.94383">
        <ele>1015.77</ele>
        <time>2014-10-04T08:28:53Z</time>
      </trkpt>
      <trkpt lat="45.66065" lon="2.94392">
        <ele>1015.29</ele>
        <time>2014-10-04T08:28:54Z</time>
      </trkpt>
      <trkpt lat="45.66067" lon="2.94402">
        <ele>1014.81</ele>
        <time>2014-10-04T08:28:55Z</time>
      </trkpt>
      <trkpt lat="45.66078" lon="2.94501">
        <ele>1015.29</ele>
        <time>2014-10-04T08:29:07Z</time>
      </trkpt>
      <trkpt lat="45.66078" lon="2.94591">
        <ele>1017.21</ele>
        <time>2014-10-04T08:29:20Z</time>
      </trkpt>
      <trkpt lat="45.66079" lon="2.94598">
        <ele>1017.21</ele>
        <time>2014-10-04T08:29:21Z</time>
      </trkpt>
      <trkpt lat="45.66081" lon="2.94619">
        <ele>1016.73</ele>
        <time>2014-10-04T08:29:24Z</time>
      </trkpt>
      <trkpt lat="45.66083" lon="2.94642">
        <ele>1016.25</ele>
        <time>2014-10-04T08:29:27Z</time>
      </trkpt>
      <trkpt lat="45.66089" lon="2.94665">
        <ele>1015.77</ele>
        <time>2014-10-04T08:29:30Z</time>
      </trkpt>
      <trkpt lat="45.66117" lon="2.9474">
        <ele>1016.73</ele>
        <time>2014-10-04T08:29:42Z</time>
      </trkpt>
      <trkpt lat="45.66123" lon="2.94752">
        <ele>1017.21</ele>
        <time>2014-10-04T08:29:44Z</time>
      </trkpt>
      <trkpt lat="45.6613" lon="2.94762">
        <ele>1017.69</ele>
        <time>2014-10-04T08:29:46Z</time>
      </trkpt>
      <trkpt lat="45.66137" lon="2.94771">
        <ele>1018.17</ele>
        <time>2014-10-04T08:29:48Z</time>
      </trkpt>
      <trkpt lat="45.66141" lon="2.94775">
        <ele>1018.17</ele>
        <time>2014-10-04T08:29:49Z</time>
      </trkpt>
      <trkpt lat="45.66144" lon="2.9478">
        <ele>1018.17</ele>
        <time>2014-10-04T08:29:50Z</time>
      </trkpt>
      <trkpt lat="45.66154" lon="2.94797">
        <ele>1018.17</ele>
        <time>2014-10-04T08:29:53Z</time>
      </trkpt>
      <trkpt lat="45.66179" lon="2.94851">
        <ele>1021.54</ele>
        <time>2014-10-04T08:30:04Z</time>
      </trkpt>
      <trkpt lat="45.66219" lon="2.94893">
        <ele>1024.42</ele>
        <time>2014-10-04T08:30:18Z</time>
      </trkpt>
      <trkpt lat="45.66269" lon="2.9494">
        <ele>1025.86</ele>
        <time>2014-10-04T08:30:35Z</time>
      </trkpt>
      <trkpt lat="45.66322" lon="2.94979">
        <ele>1027.79</ele>
        <time>2014-10-04T08:30:52Z</time>
      </trkpt>
      <trkpt lat="45.66374" lon="2.95027">
        <ele>1029.23</ele>
        <time>2014-10-04T08:31:09Z</time>
      </trkpt>
      <trkpt lat="45.66378" lon="2.95031">
        <ele>1029.23</ele>
        <time>2014-10-04T08:31:10Z</time>
      </trkpt>
      <trkpt lat="45.66381" lon="2.95035">
        <ele>1029.23</ele>
        <time>2014-10-04T08:31:11Z</time>
      </trkpt>
      <trkpt lat="45.66424" lon="2.95083">
        <ele>1032.11</ele>
        <time>2014-10-04T08:31:27Z</time>
      </trkpt>
      <trkpt lat="45.66454" lon="2.95124">
        <ele>1034.52</ele>
        <time>2014-10-04T08:31:42Z</time>
      </trkpt>
      <trkpt lat="45.66482" lon="2.95166">
        <ele>1035.96</ele>
        <time>2014-10-04T08:31:56Z</time>
      </trkpt>
      <trkpt lat="45.66523" lon="2.95208">
        <ele>1036.92</ele>
        <time>2014-10-04T08:32:13Z</time>
      </trkpt>
      <trkpt lat="45.66563" lon="2.95249">
        <ele>1036.92</ele>
        <time>2014-10-04T08:32:27Z</time>
      </trkpt>
      <trkpt lat="45.66596" lon="2.95279">
        <ele>1036.44</ele>
        <time>2014-10-04T08:32:38Z</time>
      </trkpt>
      <trkpt lat="45.66644" lon="2.95308">
        <ele>1035.48</ele>
        <time>2014-10-04T08:32:51Z</time>
      </trkpt>
      <trkpt lat="45.66685" lon="2.95332">
        <ele>1033.55</ele>
        <time>2014-10-04T08:33:03Z</time>
      </trkpt>
      <trkpt lat="45.6669" lon="2.95332">
        <ele>1033.55</ele>
        <time>2014-10-04T08:33:04Z</time>
      </trkpt>
      <trkpt lat="45.66694" lon="2.95333">
        <ele>1033.07</ele>
        <time>2014-10-04T08:33:05Z</time>
      </trkpt>
      <trkpt lat="45.66699" lon="2.95333">
        <ele>1033.07</ele>
        <time>2014-10-04T08:33:06Z</time>
      </trkpt>
      <trkpt lat="45.66716" lon="2.95338">
        <ele>1031.15</ele>
        <time>2014-10-04T08:33:09Z</time>
      </trkpt>
      <trkpt lat="45.66722" lon="2.95338">
        <ele>1031.15</ele>
        <time>2014-10-04T08:33:10Z</time>
      </trkpt>
      <trkpt lat="45.66743" lon="2.95339">
        <ele>1029.23</ele>
        <time>2014-10-04T08:33:13Z</time>
      </trkpt>
      <trkpt lat="45.66788" lon="2.95327">
        <ele>1025.38</ele>
        <time>2014-10-04T08:33:20Z</time>
      </trkpt>
      <trkpt lat="45.66793" lon="2.95324">
        <ele>1024.42</ele>
        <time>2014-10-04T08:33:21Z</time>
      </trkpt>
      <trkpt lat="45.66804" lon="2.95314">
        <ele>1022.98</ele>
        <time>2014-10-04T08:33:23Z</time>
      </trkpt>
      <trkpt lat="45.66817" lon="2.95306">
        <ele>1021.54</ele>
        <time>2014-10-04T08:33:25Z</time>
      </trkpt>
      <trkpt lat="45.66846" lon="2.95292">
        <ele>1018.65</ele>
        <time>2014-10-04T08:33:29Z</time>
      </trkpt>
      <trkpt lat="45.66853" lon="2.95287">
        <ele>1018.17</ele>
        <time>2014-10-04T08:33:30Z</time>
      </trkpt>
      <trkpt lat="45.66859" lon="2.95282">
        <ele>1017.21</ele>
        <time>2014-10-04T08:33:31Z</time>
      </trkpt>
      <trkpt lat="45.66881" lon="2.95264">
        <ele>1013.85</ele>
        <time>2014-10-04T08:33:34Z</time>
      </trkpt>
      <trkpt lat="45.66913" lon="2.95237">
        <ele>1010.48</ele>
        <time>2014-10-04T08:33:39Z</time>
      </trkpt>
      <trkpt lat="45.66942" lon="2.9521">
        <ele>1008.08</ele>
        <time>2014-10-04T08:33:44Z</time>
      </trkpt>
      <trkpt lat="45.66977" lon="2.9517">
        <ele>1004.72</ele>
        <time>2014-10-04T08:33:50Z</time>
      </trkpt>
      <trkpt lat="45.66995" lon="2.9515">
        <ele>1003.27</ele>
        <time>2014-10-04T08:33:53Z</time>
      </trkpt>
      <trkpt lat="45.67034" lon="2.95116">
        <ele>1000.39</ele>
        <time>2014-10-04T08:33:59Z</time>
      </trkpt>
      <trkpt lat="45.6704" lon="2.95114">
        <ele>999.91</ele>
        <time>2014-10-04T08:34:00Z</time>
      </trkpt>
      <trkpt lat="45.67047" lon="2.95114">
        <ele>999.43</ele>
        <time>2014-10-04T08:34:01Z</time>
      </trkpt>
      <trkpt lat="45.67053" lon="2.95115">
        <ele>999.43</ele>
        <time>2014-10-04T08:34:02Z</time>
      </trkpt>
      <trkpt lat="45.67059" lon="2.95119">
        <ele>998.47</ele>
        <time>2014-10-04T08:34:03Z</time>
      </trkpt>
      <trkpt lat="45.67065" lon="2.95124">
        <ele>997.99</ele>
        <time>2014-10-04T08:34:04Z</time>
      </trkpt>
      <trkpt lat="45.67071" lon="2.9513">
        <ele>997.51</ele>
        <time>2014-10-04T08:34:05Z</time>
      </trkpt>
      <trkpt lat="45.67101" lon="2.95157">
        <ele>994.14</ele>
        <time>2014-10-04T08:34:10Z</time>
      </trkpt>
      <trkpt lat="45.67128" lon="2.95177">
        <ele>991.26</ele>
        <time>2014-10-04T08:34:14Z</time>
      </trkpt>
      <trkpt lat="45.67135" lon="2.95182">
        <ele>990.78</ele>
        <time>2014-10-04T08:34:15Z</time>
      </trkpt>
      <trkpt lat="45.67175" lon="2.95216">
        <ele>987.41</ele>
        <time>2014-10-04T08:34:21Z</time>
      </trkpt>
      <trkpt lat="45.67219" lon="2.95252">
        <ele>984.53</ele>
        <time>2014-10-04T08:34:27Z</time>
      </trkpt>
      <trkpt lat="45.67257" lon="2.95281">
        <ele>981.64</ele>
        <time>2014-10-04T08:34:32Z</time>
      </trkpt>
      <trkpt lat="45.67286" lon="2.95303">
        <ele>979.72</ele>
        <time>2014-10-04T08:34:36Z</time>
      </trkpt>
      <trkpt lat="45.67304" lon="2.95318">
        <ele>979.72</ele>
        <time>2014-10-04T08:34:39Z</time>
      </trkpt>
      <trkpt lat="45.67307" lon="2.95323">
        <ele>979.24</ele>
        <time>2014-10-04T08:34:40Z</time>
      </trkpt>
      <trkpt lat="45.67309" lon="2.95328">
        <ele>979.24</ele>
        <time>2014-10-04T08:34:41Z</time>
      </trkpt>
      <trkpt lat="45.6731" lon="2.95333">
        <ele>979.24</ele>
        <time>2014-10-04T08:34:42Z</time>
      </trkpt>
      <trkpt lat="45.6731" lon="2.95338">
        <ele>979.72</ele>
        <time>2014-10-04T08:34:43Z</time>
      </trkpt>
      <trkpt lat="45.67308" lon="2.95343">
        <ele>979.72</ele>
        <time>2014-10-04T08:34:44Z</time>
      </trkpt>
      <trkpt lat="45.67306" lon="2.95347">
        <ele>979.72</ele>
        <time>2014-10-04T08:34:45Z</time>
      </trkpt>
      <trkpt lat="45.67304" lon="2.9535">
        <ele>980.68</ele>
        <time>2014-10-04T08:34:46Z</time>
      </trkpt>
      <trkpt lat="45.67301" lon="2.95354">
        <ele>979.72</ele>
        <time>2014-10-04T08:34:47Z</time>
      </trkpt>
      <trkpt lat="45.67299" lon="2.95358">
        <ele>979.72</ele>
        <time>2014-10-04T08:34:48Z</time>
      </trkpt>
      <trkpt lat="45.67297" lon="2.95363">
        <ele>979.72</ele>
        <time>2014-10-04T08:34:49Z</time>
      </trkpt>
      <trkpt lat="45.67295" lon="2.95368">
        <ele>980.2</ele>
        <time>2014-10-04T08:34:50Z</time>
      </trkpt>
      <trkpt lat="45.67293" lon="2.95374">
        <ele>980.2</ele>
        <time>2014-10-04T08:34:51Z</time>
      </trkpt>
      <trkpt lat="45.67291" lon="2.95378">
        <ele>979.72</ele>
        <time>2014-10-04T08:34:52Z</time>
      </trkpt>
      <trkpt lat="45.67288" lon="2.95382">
        <ele>980.2</ele>
        <time>2014-10-04T08:34:53Z</time>
      </trkpt>
      <trkpt lat="45.67286" lon="2.95387">
        <ele>980.2</ele>
        <time>2014-10-04T08:34:54Z</time>
      </trkpt>
      <trkpt lat="45.67283" lon="2.95393">
        <ele>980.2</ele>
        <time>2014-10-04T08:34:55Z</time>
      </trkpt>
      <trkpt lat="45.67281" lon="2.95398">
        <ele>980.2</ele>
        <time>2014-10-04T08:34:56Z</time>
      </trkpt>
      <trkpt lat="45.67242" lon="2.95486">
        <ele>980.2</ele>
        <time>2014-10-04T08:35:11Z</time>
      </trkpt>
      <trkpt lat="45.6719" lon="2.95588">
        <ele>979.24</ele>
        <time>2014-10-04T08:35:27Z</time>
      </trkpt>
      <trkpt lat="45.6715" lon="2.95657">
        <ele>976.36</ele>
        <time>2014-10-04T08:35:37Z</time>
      </trkpt>
      <trkpt lat="45.67145" lon="2.95665">
        <ele>976.36</ele>
        <time>2014-10-04T08:35:38Z</time>
      </trkpt>
      <trkpt lat="45.67112" lon="2.95729">
        <ele>973.47</ele>
        <time>2014-10-04T08:35:45Z</time>
      </trkpt>
      <trkpt lat="45.67109" lon="2.95741">
        <ele>972.99</ele>
        <time>2014-10-04T08:35:46Z</time>
      </trkpt>
      <trkpt lat="45.67065" lon="2.95871">
        <ele>969.63</ele>
        <time>2014-10-04T08:35:58Z</time>
      </trkpt>
      <trkpt lat="45.6702" lon="2.95956">
        <ele>967.22</ele>
        <time>2014-10-04T08:36:07Z</time>
      </trkpt>
      <trkpt lat="45.66959" lon="2.96079">
        <ele>963.86</ele>
        <time>2014-10-04T08:36:21Z</time>
      </trkpt>
      <trkpt lat="45.66932" lon="2.9612">
        <ele>960.49</ele>
        <time>2014-10-04T08:36:26Z</time>
      </trkpt>
      <trkpt lat="45.66926" lon="2.96128">
        <ele>960.01</ele>
        <time>2014-10-04T08:36:27Z</time>
      </trkpt>
      <trkpt lat="45.66922" lon="2.96138">
        <ele>959.53</ele>
        <time>2014-10-04T08:36:28Z</time>
      </trkpt>
      <trkpt lat="45.66901" lon="2.96181">
        <ele>958.09</ele>
        <time>2014-10-04T08:36:33Z</time>
      </trkpt>
      <trkpt lat="45.66899" lon="2.96187">
        <ele>958.09</ele>
        <time>2014-10-04T08:36:34Z</time>
      </trkpt>
      <trkpt lat="45.66899" lon="2.96192">
        <ele>958.09</ele>
        <time>2014-10-04T08:36:35Z</time>
      </trkpt>
      <trkpt lat="45.669" lon="2.96195">
        <ele>957.61</ele>
        <time>2014-10-04T08:36:36Z</time>
      </trkpt>
      <trkpt lat="45.66902" lon="2.96198">
        <ele>958.09</ele>
        <time>2014-10-04T08:36:37Z</time>
      </trkpt>
      <trkpt lat="45.66905" lon="2.962">
        <ele>957.61</ele>
        <time>2014-10-04T08:36:38Z</time>
      </trkpt>
      <trkpt lat="45.66908" lon="2.96201">
        <ele>957.61</ele>
        <time>2014-10-04T08:36:39Z</time>
      </trkpt>
      <trkpt lat="45.66911" lon="2.96201">
        <ele>957.61</ele>
        <time>2014-10-04T08:36:40Z</time>
      </trkpt>
      <trkpt lat="45.66915" lon="2.96202">
        <ele>957.13</ele>
        <time>2014-10-04T08:36:41Z</time>
      </trkpt>
      <trkpt lat="45.66935" lon="2.96209">
        <ele>958.57</ele>
        <time>2014-10-04T08:36:46Z</time>
      </trkpt>
      <trkpt lat="45.66974" lon="2.96228">
        <ele>960.01</ele>
        <time>2014-10-04T08:36:59Z</time>
      </trkpt>
      <trkpt lat="45.66994" lon="2.96238">
        <ele>962.9</ele>
        <time>2014-10-04T08:37:08Z</time>
      </trkpt>
      <trkpt lat="45.67021" lon="2.9625">
        <ele>965.78</ele>
        <time>2014-10-04T08:37:21Z</time>
      </trkpt>
      <trkpt lat="45.6703" lon="2.96274">
        <ele>969.15</ele>
        <time>2014-10-04T08:37:31Z</time>
      </trkpt>
      <trkpt lat="45.6702" lon="2.96319">
        <ele>971.55</ele>
        <time>2014-10-04T08:37:46Z</time>
      </trkpt>
      <trkpt lat="45.67014" lon="2.96357">
        <ele>970.11</ele>
        <time>2014-10-04T08:37:54Z</time>
      </trkpt>
      <trkpt lat="45.67013" lon="2.96364">
        <ele>970.11</ele>
        <time>2014-10-04T08:37:55Z</time>
      </trkpt>
      <trkpt lat="45.67014" lon="2.9637">
        <ele>969.63</ele>
        <time>2014-10-04T08:37:56Z</time>
      </trkpt>
      <trkpt lat="45.67014" lon="2.96377">
        <ele>969.15</ele>
        <time>2014-10-04T08:37:57Z</time>
      </trkpt>
      <trkpt lat="45.67013" lon="2.96385">
        <ele>969.15</ele>
        <time>2014-10-04T08:37:58Z</time>
      </trkpt>
      <trkpt lat="45.67014" lon="2.96416">
        <ele>967.7</ele>
        <time>2014-10-04T08:38:02Z</time>
      </trkpt>
      <trkpt lat="45.67015" lon="2.96432">
        <ele>967.22</ele>
        <time>2014-10-04T08:38:04Z</time>
      </trkpt>
      <trkpt lat="45.67016" lon="2.96439">
        <ele>966.74</ele>
        <time>2014-10-04T08:38:05Z</time>
      </trkpt>
      <trkpt lat="45.67024" lon="2.96466">
        <ele>965.3</ele>
        <time>2014-10-04T08:38:09Z</time>
      </trkpt>
      <trkpt lat="45.67039" lon="2.96506">
        <ele>961.94</ele>
        <time>2014-10-04T08:38:15Z</time>
      </trkpt>
      <trkpt lat="45.67041" lon="2.96513">
        <ele>961.46</ele>
        <time>2014-10-04T08:38:16Z</time>
      </trkpt>
      <trkpt lat="45.67053" lon="2.96546">
        <ele>959.05</ele>
        <time>2014-10-04T08:38:21Z</time>
      </trkpt>
      <trkpt lat="45.67056" lon="2.9656">
        <ele>958.57</ele>
        <time>2014-10-04T08:38:23Z</time>
      </trkpt>
      <trkpt lat="45.67065" lon="2.9662">
        <ele>954.73</ele>
        <time>2014-10-04T08:38:30Z</time>
      </trkpt>
      <trkpt lat="45.67071" lon="2.9667">
        <ele>951.84</ele>
        <time>2014-10-04T08:38:35Z</time>
      </trkpt>
      <trkpt lat="45.67073" lon="2.9668">
        <ele>951.84</ele>
        <time>2014-10-04T08:38:36Z</time>
      </trkpt>
      <trkpt lat="45.67075" lon="2.96711">
        <ele>950.4</ele>
        <time>2014-10-04T08:38:39Z</time>
      </trkpt>
      <trkpt lat="45.67074" lon="2.96731">
        <ele>949.92</ele>
        <time>2014-10-04T08:38:41Z</time>
      </trkpt>
      <trkpt lat="45.67072" lon="2.96741">
        <ele>949.44</ele>
        <time>2014-10-04T08:38:42Z</time>
      </trkpt>
      <trkpt lat="45.67061" lon="2.96778">
        <ele>947.04</ele>
        <time>2014-10-04T08:38:48Z</time>
      </trkpt>
      <trkpt lat="45.67059" lon="2.96779">
        <ele>946.56</ele>
        <time>2014-10-04T08:38:49Z</time>
      </trkpt>
      <trkpt lat="45.67055" lon="2.96778">
        <ele>946.07</ele>
        <time>2014-10-04T08:38:50Z</time>
      </trkpt>
      <trkpt lat="45.67051" lon="2.96777">
        <ele>945.59</ele>
        <time>2014-10-04T08:38:51Z</time>
      </trkpt>
      <trkpt lat="45.67047" lon="2.96774">
        <ele>945.11</ele>
        <time>2014-10-04T08:38:52Z</time>
      </trkpt>
      <trkpt lat="45.67044" lon="2.9677">
        <ele>944.63</ele>
        <time>2014-10-04T08:38:53Z</time>
      </trkpt>
      <trkpt lat="45.6704" lon="2.96765">
        <ele>944.15</ele>
        <time>2014-10-04T08:38:54Z</time>
      </trkpt>
      <trkpt lat="45.66986" lon="2.96704">
        <ele>942.23</ele>
        <time>2014-10-04T08:39:05Z</time>
      </trkpt>
      <trkpt lat="45.66975" lon="2.96694">
        <ele>942.23</ele>
        <time>2014-10-04T08:39:07Z</time>
      </trkpt>
      <trkpt lat="45.66969" lon="2.96691">
        <ele>942.23</ele>
        <time>2014-10-04T08:39:08Z</time>
      </trkpt>
      <trkpt lat="45.66952" lon="2.9668">
        <ele>941.75</ele>
        <time>2014-10-04T08:39:11Z</time>
      </trkpt>
      <trkpt lat="45.66946" lon="2.96674">
        <ele>941.27</ele>
        <time>2014-10-04T08:39:12Z</time>
      </trkpt>
      <trkpt lat="45.6694" lon="2.96668">
        <ele>940.31</ele>
        <time>2014-10-04T08:39:13Z</time>
      </trkpt>
      <trkpt lat="45.66933" lon="2.96664">
        <ele>939.83</ele>
        <time>2014-10-04T08:39:14Z</time>
      </trkpt>
      <trkpt lat="45.66926" lon="2.96662">
        <ele>939.35</ele>
        <time>2014-10-04T08:39:15Z</time>
      </trkpt>
      <trkpt lat="45.66918" lon="2.96659">
        <ele>938.38</ele>
        <time>2014-10-04T08:39:16Z</time>
      </trkpt>
      <trkpt lat="45.66911" lon="2.96655">
        <ele>937.9</ele>
        <time>2014-10-04T08:39:17Z</time>
      </trkpt>
      <trkpt lat="45.66904" lon="2.9665">
        <ele>937.42</ele>
        <time>2014-10-04T08:39:18Z</time>
      </trkpt>
      <trkpt lat="45.66897" lon="2.96644">
        <ele>937.42</ele>
        <time>2014-10-04T08:39:19Z</time>
      </trkpt>
      <trkpt lat="45.6689" lon="2.96638">
        <ele>936.94</ele>
        <time>2014-10-04T08:39:20Z</time>
      </trkpt>
      <trkpt lat="45.66878" lon="2.96628">
        <ele>935.98</ele>
        <time>2014-10-04T08:39:22Z</time>
      </trkpt>
      <trkpt lat="45.66867" lon="2.96619">
        <ele>935.5</ele>
        <time>2014-10-04T08:39:24Z</time>
      </trkpt>
      <trkpt lat="45.66863" lon="2.96613">
        <ele>935.5</ele>
        <time>2014-10-04T08:39:25Z</time>
      </trkpt>
      <trkpt lat="45.66855" lon="2.96601">
        <ele>936.46</ele>
        <time>2014-10-04T08:39:27Z</time>
      </trkpt>
      <trkpt lat="45.66851" lon="2.96596">
        <ele>936.46</ele>
        <time>2014-10-04T08:39:28Z</time>
      </trkpt>
      <trkpt lat="45.66812" lon="2.96553">
        <ele>937.42</ele>
        <time>2014-10-04T08:39:38Z</time>
      </trkpt>
      <trkpt lat="45.66796" lon="2.96531">
        <ele>938.38</ele>
        <time>2014-10-04T08:39:43Z</time>
      </trkpt>
      <trkpt lat="45.66764" lon="2.96505">
        <ele>937.9</ele>
        <time>2014-10-04T08:39:51Z</time>
      </trkpt>
      <trkpt lat="45.66751" lon="2.96494">
        <ele>937.9</ele>
        <time>2014-10-04T08:39:54Z</time>
      </trkpt>
      <trkpt lat="45.66746" lon="2.96492">
        <ele>937.9</ele>
        <time>2014-10-04T08:39:55Z</time>
      </trkpt>
      <trkpt lat="45.66732" lon="2.96485">
        <ele>937.9</ele>
        <time>2014-10-04T08:39:58Z</time>
      </trkpt>
      <trkpt lat="45.66727" lon="2.96484">
        <ele>937.9</ele>
        <time>2014-10-04T08:39:59Z</time>
      </trkpt>
      <trkpt lat="45.66722" lon="2.96487">
        <ele>937.9</ele>
        <time>2014-10-04T08:40:00Z</time>
      </trkpt>
      <trkpt lat="45.6672" lon="2.96491">
        <ele>937.9</ele>
        <time>2014-10-04T08:40:01Z</time>
      </trkpt>
      <trkpt lat="45.66718" lon="2.96494">
        <ele>938.38</ele>
        <time>2014-10-04T08:40:02Z</time>
      </trkpt>
      <trkpt lat="45.66717" lon="2.96494">
        <ele>937.9</ele>
        <time>2014-10-04T08:40:11Z</time>
      </trkpt>
      <trkpt lat="45.66717" lon="2.96495">
        <ele>934.54</ele>
        <time>2014-10-04T08:40:15Z</time>
      </trkpt>
      <trkpt lat="45.66717" lon="2.96495">
        <ele>935.5</ele>
        <time>2014-10-04T08:40:16Z</time>
      </trkpt>
      <trkpt lat="45.66717" lon="2.96495">
        <ele>937.42</ele>
        <time>2014-10-04T08:40:18Z</time>
      </trkpt>
      <trkpt lat="45.6671" lon="2.96498">
        <ele>936.94</ele>
        <time>2014-10-04T08:40:37Z</time>
      </trkpt>
      <trkpt lat="45.66712" lon="2.96497">
        <ele>936.94</ele>
        <time>2014-10-04T08:40:57Z</time>
      </trkpt>
      <trkpt lat="45.66717" lon="2.96496">
        <ele>941.27</ele>
        <time>2014-10-04T08:41:14Z</time>
      </trkpt>
      <trkpt lat="45.66717" lon="2.96497">
        <ele>937.9</ele>
        <time>2014-10-04T08:41:15Z</time>
      </trkpt>
      <trkpt lat="45.66715" lon="2.96494">
        <ele>938.86</ele>
        <time>2014-10-04T08:41:30Z</time>
      </trkpt>
    </trkseg>
  </trk>
</gpx>